Time,TemperatureF,DewpointF,PressureIn,WindDirection,WindDirectionDegrees,WindSpeedMPH,WindSpeedGustMPH,Humidity,HourlyPrecipIn,Conditions,Clouds,dailyrainin,SoftwareType,DateUTC
2013-11-02 00:00:00,61.9,61.0,29.61,North,0,0.0,0.0,97,0.00,,---,0.09,VWS V12.08,2013-11-02 04:00:00,
2013-11-02 00:01:00,61.9,61.0,29.61,North,0,0.0,0.0,97,0.00,,---,0.09,VWS V12.08,2013-11-02 04:01:00,
2013-11-02 00:06:00,62.0,61.1,29.60,North,0,0.0,0.0,97,0.00,,---,0.00,VWS V12.08,2013-11-02 04:06:00,
2013-11-02 00:11:00,62.2,61.3,29.60,North,0,0.0,0.0,97,0.00,,---,0.00,VWS V12.08,2013-11-02 04:11:00,
2013-11-02 00:12:00,62.2,61.3,29.61,North,0,0.0,0.0,97,0.00,,---,0.00,VWS V12.08,2013-11-02 04:12:00,
2013-11-02 00:16:00,62.4,61.5,29.60,North,0,0.0,0.0,97,0.00,,---,0.00,VWS V12.08,2013-11-02 04:16:00,
2013-11-02 00:17:00,62.5,61.6,29.60,North,0,0.0,0.0,97,0.00,,---,0.00,VWS V12.08,2013-11-02 04:17:00,
2013-11-02 00:21:00,62.6,61.7,29.60,North,0,0.0,0.0,97,0.00,,---,0.00,VWS V12.08,2013-11-02 04:21:00,
2013-11-02 00:22:00,62.5,61.6,29.60,North,0,0.0,0.0,97,0.00,,---,0.00,VWS V12.08,2013-11-02 04:22:00,
2013-11-02 00:26:00,62.4,61.5,29.60,North,0,0.0,0.0,97,0.00,,---,0.00,VWS V12.08,2013-11-02 04:26:00,
2013-11-02 00:27:00,62.4,61.5,29.60,North,0,0.0,0.0,97,0.00,,---,0.00,VWS V12.08,2013-11-02 04:27:00,
2013-11-02 00:28:00,62.4,61.5,29.60,North,0,0.0,0.0,97,0.00,,---,0.00,VWS V12.08,2013-11-02 04:28:00,
2013-11-02 00:31:00,62.5,61.6,29.60,North,0,0.0,0.0,97,0.00,,---,0.00,VWS V12.08,2013-11-02 04:31:00,
2013-11-02 00:32:00,62.5,61.6,29.60,North,0,0.0,0.0,97,0.00,,---,0.00,VWS V12.08,2013-11-02 04:32:00,
2013-11-02 00:33:00,62.6,61.7,29.60,North,0,0.0,0.0,97,0.00,,---,0.01,VWS V12.08,2013-11-02 04:33:00,
2013-11-02 00:36:00,62.7,61.8,29.59,North,0,0.0,0.0,97,0.01,,---,0.01,VWS V12.08,2013-11-02 04:36:00,
2013-11-02 00:37:00,62.7,61.8,29.60,North,0,0.0,0.0,97,0.01,,---,0.01,VWS V12.08,2013-11-02 04:37:00,
2013-11-02 00:38:00,62.8,61.9,29.60,North,0,0.0,0.0,97,0.01,,---,0.01,VWS V12.08,2013-11-02 04:38:00,
2013-11-02 00:41:00,62.4,61.5,29.60,North,0,0.0,0.0,97,0.01,,---,0.01,VWS V12.08,2013-11-02 04:41:00,
2013-11-02 00:42:00,62.3,61.4,29.59,North,0,0.0,0.0,97,0.01,,---,0.01,VWS V12.08,2013-11-02 04:42:00,
2013-11-02 00:43:00,62.2,61.3,29.59,North,0,0.0,0.0,97,0.01,,---,0.01,VWS V12.08,2013-11-02 04:43:00,
2013-11-02 00:46:00,62.0,61.1,29.59,North,0,0.0,0.0,97,0.01,,---,0.01,VWS V12.08,2013-11-02 04:46:00,
2013-11-02 00:47:00,61.9,61.0,29.59,North,0,0.0,0.0,97,0.01,,---,0.01,VWS V12.08,2013-11-02 04:47:00,
2013-11-02 00:48:00,61.8,60.9,29.59,North,0,0.0,0.0,97,0.01,,---,0.01,VWS V12.08,2013-11-02 04:48:00,
2013-11-02 00:51:00,61.8,60.9,29.58,North,0,0.0,0.0,97,0.01,,---,0.01,VWS V12.08,2013-11-02 04:51:00,
2013-11-02 00:52:00,61.8,60.9,29.58,North,0,0.0,0.0,97,0.01,,---,0.01,VWS V12.08,2013-11-02 04:52:00,
2013-11-02 00:53:00,61.8,60.9,29.58,North,0,0.0,0.0,97,0.01,,---,0.01,VWS V12.08,2013-11-02 04:53:00,
2013-11-02 00:54:00,61.9,61.0,29.58,North,0,0.0,0.0,97,0.01,,---,0.01,VWS V12.08,2013-11-02 04:54:00,
2013-11-02 00:56:00,62.0,61.1,29.58,North,0,0.0,0.0,97,0.01,,---,0.01,VWS V12.08,2013-11-02 04:56:00,
2013-11-02 00:57:00,61.9,61.0,29.58,North,0,0.0,0.0,97,0.01,,---,0.01,VWS V12.08,2013-11-02 04:57:00,
2013-11-02 00:58:00,61.9,61.0,29.58,North,0,0.0,0.0,97,0.01,,---,0.01,VWS V12.08,2013-11-02 04:58:00,
2013-11-02 00:59:00,62.0,61.1,29.58,North,0,0.0,0.0,97,0.01,,---,0.01,VWS V12.08,2013-11-02 04:59:00,
2013-11-02 01:01:00,62.0,61.1,29.58,North,0,0.0,0.0,97,0.01,,---,0.01,VWS V12.08,2013-11-02 05:01:00,
2013-11-02 01:03:00,62.0,61.1,29.58,North,0,0.0,0.0,97,0.01,,---,0.01,VWS V12.08,2013-11-02 05:03:00,
2013-11-02 01:04:00,62.0,61.1,29.58,North,0,0.0,0.0,97,0.01,,---,0.01,VWS V12.08,2013-11-02 05:04:00,
2013-11-02 01:06:00,62.0,61.1,29.58,North,0,0.0,0.0,97,0.01,,---,0.01,VWS V12.08,2013-11-02 05:06:00,
2013-11-02 01:08:00,62.1,61.2,29.58,North,0,0.0,0.0,97,0.01,,---,0.01,VWS V12.08,2013-11-02 05:08:00,
2013-11-02 01:09:00,62.2,61.3,29.58,North,0,0.0,0.0,97,0.01,,---,0.01,VWS V12.08,2013-11-02 05:09:00,
2013-11-02 01:12:00,62.4,61.5,29.58,North,0,0.0,0.0,97,0.01,,---,0.01,VWS V12.08,2013-11-02 05:12:00,
2013-11-02 01:13:00,62.5,61.6,29.58,North,0,0.0,0.0,97,0.01,,---,0.01,VWS V12.08,2013-11-02 05:13:00,
2013-11-02 01:14:00,62.5,61.6,29.58,North,0,0.0,0.0,97,0.01,,---,0.01,VWS V12.08,2013-11-02 05:14:00,
2013-11-02 01:16:00,62.6,61.7,29.59,North,0,0.0,0.0,97,0.01,,---,0.01,VWS V12.08,2013-11-02 05:16:00,
2013-11-02 01:18:00,62.6,61.7,29.59,North,0,0.0,0.0,97,0.01,,---,0.01,VWS V12.08,2013-11-02 05:18:00,
2013-11-02 01:19:00,62.6,61.7,29.59,North,0,0.0,0.0,97,0.01,,---,0.01,VWS V12.08,2013-11-02 05:19:00,
2013-11-02 01:22:00,62.7,61.8,29.58,North,0,0.0,0.0,97,0.02,,---,0.03,VWS V12.08,2013-11-02 05:22:00,
2013-11-02 01:24:00,62.7,61.8,29.58,North,0,0.0,0.0,97,0.03,,---,0.03,VWS V12.08,2013-11-02 05:24:00,
2013-11-02 01:27:00,62.7,61.8,29.58,North,0,0.0,0.0,97,0.03,,---,0.03,VWS V12.08,2013-11-02 05:27:00,
2013-11-02 01:29:00,62.7,61.8,29.58,North,0,0.0,0.0,97,0.03,,---,0.03,VWS V12.08,2013-11-02 05:29:00,
2013-11-02 01:30:00,62.7,61.8,29.59,North,0,0.0,0.0,97,0.03,,---,0.03,VWS V12.08,2013-11-02 05:30:00,
2013-11-02 01:32:00,62.7,61.8,29.58,North,0,0.0,0.0,97,0.03,,---,0.03,VWS V12.08,2013-11-02 05:32:00,
2013-11-02 01:34:00,62.7,61.8,29.58,North,0,0.0,0.0,97,0.03,,---,0.03,VWS V12.08,2013-11-02 05:34:00,
2013-11-02 01:35:00,62.8,61.9,29.59,North,0,0.0,0.0,97,0.03,,---,0.03,VWS V12.08,2013-11-02 05:35:00,
2013-11-02 01:37:00,62.7,61.8,29.58,North,0,0.0,0.0,97,0.03,,---,0.03,VWS V12.08,2013-11-02 05:37:00,
2013-11-02 01:39:00,62.7,61.8,29.59,North,0,0.0,0.0,97,0.03,,---,0.03,VWS V12.08,2013-11-02 05:39:00,
2013-11-02 01:41:00,62.8,61.9,29.59,North,0,0.0,0.0,97,0.03,,---,0.03,VWS V12.08,2013-11-02 05:41:00,
2013-11-02 01:42:00,62.8,61.9,29.58,North,0,0.0,0.0,97,0.02,,---,0.03,VWS V12.08,2013-11-02 05:42:00,
2013-11-02 01:44:00,62.8,61.9,29.58,North,0,0.0,0.0,97,0.03,,---,0.04,VWS V12.08,2013-11-02 05:44:00,
2013-11-02 01:46:00,62.8,61.9,29.58,North,0,0.0,0.0,97,0.03,,---,0.04,VWS V12.08,2013-11-02 05:46:00,
2013-11-02 01:47:00,62.8,61.9,29.58,North,0,0.0,0.0,97,0.03,,---,0.04,VWS V12.08,2013-11-02 05:47:00,
2013-11-02 01:49:00,62.8,61.9,29.58,North,0,0.0,0.0,97,0.03,,---,0.04,VWS V12.08,2013-11-02 05:49:00,
2013-11-02 01:50:00,62.8,61.9,29.58,North,0,0.0,0.0,97,0.03,,---,0.04,VWS V12.08,2013-11-02 05:50:00,
2013-11-02 01:51:00,62.8,61.9,29.58,North,0,0.0,0.0,97,0.03,,---,0.04,VWS V12.08,2013-11-02 05:51:00,
2013-11-02 01:52:00,62.8,61.9,29.58,North,0,0.0,0.0,97,0.03,,---,0.04,VWS V12.08,2013-11-02 05:52:00,
2013-11-02 01:55:00,62.8,61.9,29.58,North,0,0.0,0.0,97,0.03,,---,0.04,VWS V12.08,2013-11-02 05:55:00,
2013-11-02 01:57:00,62.8,61.9,29.58,North,0,0.0,0.0,97,0.03,,---,0.04,VWS V12.08,2013-11-02 05:57:00,
2013-11-02 02:00:00,62.8,61.9,29.57,North,0,0.0,0.0,97,0.03,,---,0.04,VWS V12.08,2013-11-02 06:00:00,
2013-11-02 02:02:00,62.7,61.8,29.57,North,0,0.0,0.0,97,0.03,,---,0.04,VWS V12.08,2013-11-02 06:02:00,
2013-11-02 02:03:00,62.7,61.8,29.57,North,0,0.0,0.0,97,0.03,,---,0.04,VWS V12.08,2013-11-02 06:03:00,
2013-11-02 02:05:00,62.6,61.7,29.57,North,0,0.0,0.0,97,0.03,,---,0.04,VWS V12.08,2013-11-02 06:05:00,
2013-11-02 02:07:00,62.3,61.4,29.57,North,0,0.0,0.0,97,0.03,,---,0.04,VWS V12.08,2013-11-02 06:07:00,
2013-11-02 02:08:00,62.3,61.4,29.57,North,0,0.0,0.0,97,0.03,,---,0.04,VWS V12.08,2013-11-02 06:08:00,
2013-11-02 02:10:00,62.2,61.3,29.57,North,0,0.0,0.0,97,0.03,,---,0.04,VWS V12.08,2013-11-02 06:10:00,
2013-11-02 02:12:00,62.2,61.3,29.58,North,0,0.0,0.0,97,0.03,,---,0.04,VWS V12.08,2013-11-02 06:12:00,
2013-11-02 02:13:00,62.2,61.3,29.58,North,0,0.0,0.0,97,0.03,,---,0.04,VWS V12.08,2013-11-02 06:13:00,
2013-11-02 02:15:00,62.2,61.3,29.58,North,0,0.0,0.0,97,0.03,,---,0.04,VWS V12.08,2013-11-02 06:15:00,
2013-11-02 02:18:00,62.1,61.2,29.58,North,0,0.0,0.0,97,0.03,,---,0.04,VWS V12.08,2013-11-02 06:18:00,
2013-11-02 02:19:00,62.1,61.2,29.57,North,0,0.0,0.0,97,0.03,,---,0.04,VWS V12.08,2013-11-02 06:19:00,
2013-11-02 02:20:00,62.1,61.2,29.57,North,0,0.0,0.0,97,0.03,,---,0.04,VWS V12.08,2013-11-02 06:20:00,
2013-11-02 02:21:00,62.1,61.2,29.57,North,0,0.0,0.0,97,0.03,,---,0.04,VWS V12.08,2013-11-02 06:21:00,
2013-11-02 02:23:00,62.0,61.1,29.56,North,0,0.0,0.0,97,0.02,,---,0.04,VWS V12.08,2013-11-02 06:23:00,
2013-11-02 02:24:00,62.0,61.1,29.56,North,0,0.0,0.0,97,0.02,,---,0.04,VWS V12.08,2013-11-02 06:24:00,
2013-11-02 02:25:00,62.0,61.1,29.56,North,0,0.0,0.0,97,0.02,,---,0.04,VWS V12.08,2013-11-02 06:25:00,
2013-11-02 02:26:00,62.0,61.1,29.56,North,0,0.0,0.0,97,0.02,,---,0.04,VWS V12.08,2013-11-02 06:26:00,
2013-11-02 02:28:00,61.9,61.0,29.57,North,0,0.0,0.0,97,0.02,,---,0.04,VWS V12.08,2013-11-02 06:28:00,
2013-11-02 02:29:00,61.9,61.0,29.57,North,0,0.0,0.0,97,0.02,,---,0.04,VWS V12.08,2013-11-02 06:29:00,
2013-11-02 02:30:00,61.8,60.9,29.57,North,0,0.0,0.0,97,0.02,,---,0.04,VWS V12.08,2013-11-02 06:30:00,
2013-11-02 02:31:00,61.8,60.9,29.57,North,0,0.0,0.0,97,0.02,,---,0.04,VWS V12.08,2013-11-02 06:31:00,
2013-11-02 02:33:00,61.8,60.9,29.58,North,0,0.0,0.0,97,0.01,,---,0.04,VWS V12.08,2013-11-02 06:33:00,
2013-11-02 02:35:00,61.8,60.9,29.57,North,0,0.0,0.0,97,0.01,,---,0.04,VWS V12.08,2013-11-02 06:35:00,
2013-11-02 02:36:00,61.8,60.9,29.57,North,0,0.0,0.0,97,0.01,,---,0.04,VWS V12.08,2013-11-02 06:36:00,
2013-11-02 02:38:00,61.7,60.8,29.57,North,0,0.0,0.0,97,0.01,,---,0.04,VWS V12.08,2013-11-02 06:38:00,
2013-11-02 02:40:00,61.7,60.8,29.57,North,0,0.0,0.0,97,0.01,,---,0.04,VWS V12.08,2013-11-02 06:40:00,
2013-11-02 02:41:00,61.7,60.8,29.57,North,0,0.0,0.0,97,0.01,,---,0.04,VWS V12.08,2013-11-02 06:41:00,
2013-11-02 02:43:00,61.6,60.7,29.57,North,0,0.0,0.0,97,0.01,,---,0.04,VWS V12.08,2013-11-02 06:43:00,
2013-11-02 02:46:00,61.6,60.7,29.57,North,0,0.0,0.0,97,0.01,,---,0.04,VWS V12.08,2013-11-02 06:46:00,
2013-11-02 02:48:00,61.5,60.6,29.58,North,0,0.0,0.0,97,0.01,,---,0.04,VWS V12.08,2013-11-02 06:48:00,
2013-11-02 02:51:00,61.4,60.5,29.58,North,0,0.0,0.0,97,0.01,,---,0.04,VWS V12.08,2013-11-02 06:51:00,
2013-11-02 02:53:00,61.4,60.5,29.57,North,0,0.0,0.0,97,0.00,,---,0.04,VWS V12.08,2013-11-02 06:53:00,
2013-11-02 02:56:00,61.3,60.4,29.58,North,0,0.0,0.0,97,0.00,,---,0.04,VWS V12.08,2013-11-02 06:56:00,
2013-11-02 02:58:00,61.2,60.3,29.58,North,0,0.0,0.0,97,0.00,,---,0.04,VWS V12.08,2013-11-02 06:58:00,
2013-11-02 03:01:00,61.1,60.2,29.58,North,0,0.0,0.0,97,0.00,,---,0.04,VWS V12.08,2013-11-02 07:01:00,
2013-11-02 03:03:00,61.1,60.2,29.57,North,0,0.0,0.0,97,0.00,,---,0.04,VWS V12.08,2013-11-02 07:03:00,
2013-11-02 03:04:00,61.1,60.2,29.57,North,0,0.0,0.0,97,0.00,,---,0.04,VWS V12.08,2013-11-02 07:04:00,
2013-11-02 03:06:00,61.1,60.2,29.57,North,0,0.0,0.0,97,0.00,,---,0.04,VWS V12.08,2013-11-02 07:06:00,
2013-11-02 03:07:00,61.1,60.2,29.57,North,0,0.0,0.0,97,0.00,,---,0.04,VWS V12.08,2013-11-02 07:07:00,
2013-11-02 03:08:00,61.1,60.2,29.57,North,0,0.0,0.0,97,0.00,,---,0.04,VWS V12.08,2013-11-02 07:08:00,
2013-11-02 03:09:00,61.1,60.2,29.57,North,0,0.0,0.0,97,0.00,,---,0.04,VWS V12.08,2013-11-02 07:09:00,
2013-11-02 03:11:00,61.0,60.2,29.57,North,0,0.0,0.0,97,0.00,,---,0.04,VWS V12.08,2013-11-02 07:11:00,
2013-11-02 03:12:00,61.0,60.2,29.57,North,0,0.0,0.0,97,0.00,,---,0.04,VWS V12.08,2013-11-02 07:12:00,
2013-11-02 03:13:00,61.0,60.2,29.57,North,0,0.0,0.0,97,0.00,,---,0.04,VWS V12.08,2013-11-02 07:13:00,
2013-11-02 03:14:00,61.0,60.2,29.57,North,0,0.0,0.0,97,0.00,,---,0.04,VWS V12.08,2013-11-02 07:14:00,
2013-11-02 03:16:00,60.9,60.0,29.57,North,0,0.0,0.0,97,0.00,,---,0.04,VWS V12.08,2013-11-02 07:16:00,
2013-11-02 03:17:00,60.9,60.0,29.57,North,0,0.0,0.0,97,0.00,,---,0.04,VWS V12.08,2013-11-02 07:17:00,
2013-11-02 03:18:00,60.9,60.0,29.57,North,0,0.0,0.0,97,0.00,,---,0.04,VWS V12.08,2013-11-02 07:18:00,
2013-11-02 03:19:00,60.8,60.0,29.57,North,0,0.0,0.0,97,0.00,,---,0.04,VWS V12.08,2013-11-02 07:19:00,
2013-11-02 03:21:00,60.8,60.0,29.57,North,0,0.0,0.0,97,0.00,,---,0.04,VWS V12.08,2013-11-02 07:21:00,
2013-11-02 03:22:00,60.8,60.0,29.57,North,0,0.0,0.0,97,0.00,,---,0.04,VWS V12.08,2013-11-02 07:22:00,
2013-11-02 03:23:00,60.8,60.0,29.57,North,0,0.0,0.0,97,0.00,,---,0.04,VWS V12.08,2013-11-02 07:23:00,
2013-11-02 03:24:00,60.7,59.8,29.58,North,0,0.0,0.0,97,0.00,,---,0.04,VWS V12.08,2013-11-02 07:24:00,
2013-11-02 03:26:00,60.7,59.8,29.58,North,0,0.0,0.0,97,0.00,,---,0.04,VWS V12.08,2013-11-02 07:26:00,
2013-11-02 03:27:00,60.7,59.8,29.57,North,0,0.0,0.0,97,0.00,,---,0.04,VWS V12.08,2013-11-02 07:27:00,
2013-11-02 03:29:00,60.7,59.8,29.57,North,0,0.0,0.0,97,0.00,,---,0.04,VWS V12.08,2013-11-02 07:29:00,
2013-11-02 03:31:00,60.6,59.8,29.57,North,0,0.0,0.0,97,0.00,,---,0.04,VWS V12.08,2013-11-02 07:31:00,
2013-11-02 03:32:00,60.6,59.8,29.58,North,0,0.0,0.0,97,0.00,,---,0.04,VWS V12.08,2013-11-02 07:32:00,
2013-11-02 03:34:00,60.5,59.7,29.58,North,0,0.0,0.0,97,0.00,,---,0.04,VWS V12.08,2013-11-02 07:34:00,
2013-11-02 03:36:00,60.4,59.5,29.58,North,0,0.0,0.0,97,0.00,,---,0.04,VWS V12.08,2013-11-02 07:36:00,
2013-11-02 03:37:00,60.4,59.5,29.58,North,0,0.0,0.0,97,0.00,,---,0.04,VWS V12.08,2013-11-02 07:37:00,
2013-11-02 03:38:00,60.4,59.5,29.58,North,0,0.0,0.0,97,0.00,,---,0.04,VWS V12.08,2013-11-02 07:38:00,
2013-11-02 03:39:00,60.4,59.5,29.58,North,0,0.0,0.0,97,0.00,,---,0.04,VWS V12.08,2013-11-02 07:39:00,
2013-11-02 03:40:00,60.4,59.5,29.58,North,0,0.0,0.0,97,0.00,,---,0.04,VWS V12.08,2013-11-02 07:40:00,
2013-11-02 03:42:00,60.4,59.5,29.58,North,0,0.0,0.0,97,0.00,,---,0.04,VWS V12.08,2013-11-02 07:42:00,
2013-11-02 03:43:00,60.4,59.5,29.58,North,0,0.0,0.0,97,0.00,,---,0.04,VWS V12.08,2013-11-02 07:43:00,
2013-11-02 03:44:00,60.4,59.5,29.58,North,0,0.0,0.0,97,0.00,,---,0.04,VWS V12.08,2013-11-02 07:44:00,
2013-11-02 03:45:00,60.5,59.7,29.58,North,0,0.0,0.0,97,0.00,,---,0.04,VWS V12.08,2013-11-02 07:45:00,
2013-11-02 03:47:00,60.5,59.7,29.57,North,0,0.0,0.0,97,0.00,,---,0.04,VWS V12.08,2013-11-02 07:47:00,
2013-11-02 03:48:00,60.6,59.8,29.58,North,0,0.0,0.0,97,0.00,,---,0.04,VWS V12.08,2013-11-02 07:48:00,
2013-11-02 03:49:00,60.6,59.8,29.58,North,0,0.0,0.0,97,0.00,,---,0.04,VWS V12.08,2013-11-02 07:49:00,
2013-11-02 03:50:00,60.7,59.8,29.57,North,0,0.0,0.0,97,0.00,,---,0.04,VWS V12.08,2013-11-02 07:50:00,
2013-11-02 03:52:00,60.7,59.8,29.57,North,0,0.0,0.0,97,0.00,,---,0.04,VWS V12.08,2013-11-02 07:52:00,
2013-11-02 03:53:00,60.8,60.0,29.57,North,0,0.0,0.0,97,0.00,,---,0.04,VWS V12.08,2013-11-02 07:53:00,
2013-11-02 03:54:00,60.9,60.3,29.58,North,0,0.0,0.0,98,0.00,,---,0.04,VWS V12.08,2013-11-02 07:54:00,
2013-11-02 03:55:00,60.9,60.3,29.58,North,0,0.0,0.0,98,0.00,,---,0.04,VWS V12.08,2013-11-02 07:55:00,
2013-11-02 03:57:00,61.0,60.4,29.58,North,0,0.0,0.0,98,0.00,,---,0.04,VWS V12.08,2013-11-02 07:57:00,
2013-11-02 03:58:00,61.0,60.2,29.58,North,0,0.0,0.0,97,0.00,,---,0.04,VWS V12.08,2013-11-02 07:58:00,
2013-11-02 04:00:00,61.1,60.2,29.58,North,0,0.0,0.0,97,0.00,,---,0.04,VWS V12.08,2013-11-02 08:00:00,
2013-11-02 04:02:00,61.2,60.3,29.58,North,0,0.0,0.0,97,0.00,,---,0.04,VWS V12.08,2013-11-02 08:02:00,
2013-11-02 04:03:00,61.2,60.3,29.58,North,0,0.0,0.0,97,0.00,,---,0.04,VWS V12.08,2013-11-02 08:03:00,
2013-11-02 04:04:00,61.2,60.3,29.58,North,0,0.0,0.0,97,0.00,,---,0.04,VWS V12.08,2013-11-02 08:04:00,
2013-11-02 04:05:00,61.2,60.3,29.58,North,0,0.0,0.0,97,0.00,,---,0.04,VWS V12.08,2013-11-02 08:05:00,
2013-11-02 04:06:00,61.3,60.4,29.58,North,0,0.0,0.0,97,0.00,,---,0.04,VWS V12.08,2013-11-02 08:06:00,
2013-11-02 04:07:00,61.3,60.4,29.58,North,0,0.0,0.0,97,0.00,,---,0.04,VWS V12.08,2013-11-02 08:07:00,
2013-11-02 04:08:00,61.3,60.4,29.58,North,0,0.0,0.0,97,0.00,,---,0.04,VWS V12.08,2013-11-02 08:08:00,
2013-11-02 04:09:00,61.3,60.4,29.58,North,0,0.0,0.0,97,0.00,,---,0.04,VWS V12.08,2013-11-02 08:09:00,
2013-11-02 04:10:00,61.3,60.4,29.58,North,0,0.0,0.0,97,0.00,,---,0.04,VWS V12.08,2013-11-02 08:10:00,
2013-11-02 04:11:00,61.2,60.3,29.58,North,0,0.0,0.0,97,0.00,,---,0.04,VWS V12.08,2013-11-02 08:11:00,
2013-11-02 04:12:00,61.2,60.3,29.58,North,0,0.0,0.0,97,0.00,,---,0.04,VWS V12.08,2013-11-02 08:12:00,
2013-11-02 04:13:00,61.2,60.3,29.58,North,0,0.0,0.0,97,0.00,,---,0.04,VWS V12.08,2013-11-02 08:13:00,
2013-11-02 04:14:00,61.2,60.3,29.58,North,0,0.0,0.0,97,0.00,,---,0.04,VWS V12.08,2013-11-02 08:14:00,
2013-11-02 04:15:00,61.2,60.3,29.58,North,0,0.0,0.0,97,0.00,,---,0.04,VWS V12.08,2013-11-02 08:15:00,
2013-11-02 04:16:00,61.3,60.4,29.58,North,0,0.0,0.0,97,0.00,,---,0.04,VWS V12.08,2013-11-02 08:16:00,
2013-11-02 04:17:00,61.3,60.4,29.58,North,0,0.0,0.0,97,0.00,,---,0.04,VWS V12.08,2013-11-02 08:17:00,
2013-11-02 04:18:00,61.3,60.4,29.58,North,0,0.0,0.0,97,0.00,,---,0.04,VWS V12.08,2013-11-02 08:18:00,
2013-11-02 04:19:00,61.3,60.4,29.58,North,0,0.0,0.0,97,0.00,,---,0.04,VWS V12.08,2013-11-02 08:19:00,
2013-11-02 04:20:00,61.3,60.4,29.58,North,0,0.0,0.0,97,0.00,,---,0.04,VWS V12.08,2013-11-02 08:20:00,
2013-11-02 04:22:00,61.3,60.4,29.57,North,0,0.0,0.0,97,0.00,,---,0.04,VWS V12.08,2013-11-02 08:22:00,
2013-11-02 04:23:00,61.3,60.4,29.58,North,0,0.0,0.0,97,0.00,,---,0.04,VWS V12.08,2013-11-02 08:23:00,
2013-11-02 04:24:00,61.3,60.4,29.57,North,0,0.0,0.0,97,0.00,,---,0.04,VWS V12.08,2013-11-02 08:24:00,
2013-11-02 04:25:00,61.3,60.4,29.58,North,0,0.0,0.0,97,0.00,,---,0.04,VWS V12.08,2013-11-02 08:25:00,
2013-11-02 04:28:00,61.2,60.3,29.58,North,0,0.0,0.0,97,0.00,,---,0.04,VWS V12.08,2013-11-02 08:28:00,
2013-11-02 04:29:00,61.2,60.3,29.58,North,0,0.0,0.0,97,0.00,,---,0.04,VWS V12.08,2013-11-02 08:29:00,
2013-11-02 04:30:00,61.2,60.3,29.58,North,0,0.0,0.0,97,0.00,,---,0.04,VWS V12.08,2013-11-02 08:30:00,
2013-11-02 04:33:00,61.1,60.2,29.58,North,0,0.0,0.0,97,0.00,,---,0.04,VWS V12.08,2013-11-02 08:33:00,
2013-11-02 04:34:00,61.1,60.2,29.58,North,0,0.0,0.0,97,0.00,,---,0.04,VWS V12.08,2013-11-02 08:34:00,
2013-11-02 04:35:00,61.1,60.2,29.58,North,0,0.0,0.0,97,0.00,,---,0.04,VWS V12.08,2013-11-02 08:35:00,
2013-11-02 04:38:00,61.0,60.2,29.58,North,0,0.0,0.0,97,0.00,,---,0.04,VWS V12.08,2013-11-02 08:38:00,
2013-11-02 04:39:00,61.0,60.2,29.58,North,0,0.0,0.0,97,0.00,,---,0.04,VWS V12.08,2013-11-02 08:39:00,
2013-11-02 04:40:00,60.9,60.0,29.58,North,0,0.0,0.0,97,0.00,,---,0.04,VWS V12.08,2013-11-02 08:40:00,
2013-11-02 04:43:00,60.9,60.0,29.57,North,0,0.0,0.0,97,0.00,,---,0.04,VWS V12.08,2013-11-02 08:43:00,
2013-11-02 04:44:00,60.9,60.0,29.57,North,0,0.0,0.0,97,0.00,,---,0.04,VWS V12.08,2013-11-02 08:44:00,
2013-11-02 04:45:00,60.8,60.0,29.57,North,0,0.0,0.0,97,0.00,,---,0.04,VWS V12.08,2013-11-02 08:45:00,
2013-11-02 04:48:00,60.7,59.8,29.57,North,0,0.0,0.0,97,0.00,,---,0.04,VWS V12.08,2013-11-02 08:48:00,
2013-11-02 04:49:00,60.7,59.8,29.57,North,0,0.0,0.0,97,0.00,,---,0.04,VWS V12.08,2013-11-02 08:49:00,
2013-11-02 04:50:00,60.7,59.8,29.57,North,0,0.0,0.0,97,0.00,,---,0.04,VWS V12.08,2013-11-02 08:50:00,
2013-11-02 04:51:00,60.7,59.8,29.57,North,0,0.0,0.0,97,0.00,,---,0.04,VWS V12.08,2013-11-02 08:51:00,
2013-11-02 04:54:00,60.6,59.8,29.57,North,0,0.0,0.0,97,0.00,,---,0.04,VWS V12.08,2013-11-02 08:54:00,
2013-11-02 04:55:00,60.6,59.8,29.57,North,0,0.0,0.0,97,0.00,,---,0.04,VWS V12.08,2013-11-02 08:55:00,
2013-11-02 04:56:00,60.6,59.8,29.57,North,0,0.0,0.0,97,0.00,,---,0.04,VWS V12.08,2013-11-02 08:56:00,
2013-11-02 04:59:00,60.5,59.7,29.57,North,0,0.0,0.0,97,0.00,,---,0.04,VWS V12.08,2013-11-02 08:59:00,
2013-11-02 05:00:00,60.5,59.7,29.57,North,0,0.0,0.0,97,0.00,,---,0.04,VWS V12.08,2013-11-02 09:00:00,
2013-11-02 05:01:00,60.5,59.7,29.57,North,0,0.0,0.0,97,0.00,,---,0.04,VWS V12.08,2013-11-02 09:01:00,
2013-11-02 05:04:00,60.5,59.7,29.57,North,0,0.0,0.0,97,0.00,,---,0.04,VWS V12.08,2013-11-02 09:04:00,
2013-11-02 05:05:00,60.4,59.5,29.57,North,0,0.0,0.0,97,0.00,,---,0.04,VWS V12.08,2013-11-02 09:05:00,
2013-11-02 05:06:00,60.4,59.5,29.57,North,0,0.0,0.0,97,0.00,,---,0.04,VWS V12.08,2013-11-02 09:06:00,
2013-11-02 05:09:00,60.4,59.5,29.57,North,0,0.0,0.0,97,0.00,,---,0.04,VWS V12.08,2013-11-02 09:09:00,
2013-11-02 05:10:00,60.4,59.5,29.57,North,0,0.0,0.0,97,0.00,,---,0.04,VWS V12.08,2013-11-02 09:10:00,
2013-11-02 05:11:00,60.4,59.5,29.57,North,0,0.0,0.0,97,0.00,,---,0.04,VWS V12.08,2013-11-02 09:11:00,
2013-11-02 05:14:00,60.4,59.5,29.57,North,0,0.0,0.0,97,0.00,,---,0.04,VWS V12.08,2013-11-02 09:14:00,
2013-11-02 05:15:00,60.4,59.5,29.57,North,0,0.0,0.0,97,0.00,,---,0.04,VWS V12.08,2013-11-02 09:15:00,
2013-11-02 05:16:00,60.4,59.5,29.57,North,0,0.0,0.0,97,0.00,,---,0.04,VWS V12.08,2013-11-02 09:16:00,
2013-11-02 05:19:00,60.4,59.5,29.57,North,0,0.0,0.0,97,0.00,,---,0.04,VWS V12.08,2013-11-02 09:19:00,
2013-11-02 05:20:00,60.5,59.7,29.57,North,0,0.0,0.0,97,0.00,,---,0.04,VWS V12.08,2013-11-02 09:20:00,
2013-11-02 05:21:00,60.5,59.7,29.58,North,0,0.0,0.0,97,0.00,,---,0.04,VWS V12.08,2013-11-02 09:21:00,
2013-11-02 05:24:00,60.5,59.7,29.57,North,0,0.0,0.0,97,0.00,,---,0.04,VWS V12.08,2013-11-02 09:24:00,
2013-11-02 05:25:00,60.5,59.7,29.57,North,0,0.0,0.0,97,0.00,,---,0.04,VWS V12.08,2013-11-02 09:25:00,
2013-11-02 05:26:00,60.5,59.7,29.57,North,0,0.0,0.0,97,0.00,,---,0.04,VWS V12.08,2013-11-02 09:26:00,
2013-11-02 05:30:00,60.6,59.8,29.58,North,0,0.0,0.0,97,0.00,,---,0.04,VWS V12.08,2013-11-02 09:30:00,
2013-11-02 05:31:00,60.6,59.8,29.58,North,0,0.0,0.0,97,0.00,,---,0.04,VWS V12.08,2013-11-02 09:31:00,
2013-11-02 05:32:00,60.6,59.8,29.58,North,0,0.0,0.0,97,0.00,,---,0.04,VWS V12.08,2013-11-02 09:32:00,
2013-11-02 05:35:00,60.6,59.8,29.58,North,0,0.0,0.0,97,0.00,,---,0.04,VWS V12.08,2013-11-02 09:35:00,
2013-11-02 05:36:00,60.5,59.7,29.58,North,0,0.0,0.0,97,0.00,,---,0.04,VWS V12.08,2013-11-02 09:36:00,
2013-11-02 05:37:00,60.5,59.7,29.58,North,0,0.0,0.0,97,0.00,,---,0.04,VWS V12.08,2013-11-02 09:37:00,
2013-11-02 05:40:00,60.4,59.5,29.58,North,0,0.0,0.0,97,0.00,,---,0.04,VWS V12.08,2013-11-02 09:40:00,
2013-11-02 05:41:00,60.4,59.5,29.58,North,0,0.0,0.0,97,0.00,,---,0.04,VWS V12.08,2013-11-02 09:41:00,
2013-11-02 05:42:00,60.4,59.5,29.58,North,0,0.0,0.0,97,0.00,,---,0.04,VWS V12.08,2013-11-02 09:42:00,
2013-11-02 05:45:00,60.3,59.5,29.59,North,0,0.0,0.0,97,0.00,,---,0.04,VWS V12.08,2013-11-02 09:45:00,
2013-11-02 05:46:00,60.2,59.3,29.59,North,0,0.0,0.0,97,0.00,,---,0.04,VWS V12.08,2013-11-02 09:46:00,
2013-11-02 05:47:00,60.2,59.3,29.59,North,0,0.0,0.0,97,0.00,,---,0.04,VWS V12.08,2013-11-02 09:47:00,
2013-11-02 05:50:00,60.1,59.2,29.59,North,0,0.0,0.0,97,0.00,,---,0.04,VWS V12.08,2013-11-02 09:50:00,
2013-11-02 05:51:00,60.1,59.2,29.59,North,0,0.0,0.0,97,0.00,,---,0.04,VWS V12.08,2013-11-02 09:51:00,
2013-11-02 05:52:00,60.0,59.2,29.59,North,0,0.0,0.0,97,0.00,,---,0.04,VWS V12.08,2013-11-02 09:52:00,
2013-11-02 05:53:00,60.0,59.2,29.59,North,0,0.0,0.0,97,0.00,,---,0.04,VWS V12.08,2013-11-02 09:53:00,
2013-11-02 05:56:00,59.9,59.0,29.60,North,0,0.0,0.0,97,0.00,,---,0.04,VWS V12.08,2013-11-02 09:56:00,
2013-11-02 05:57:00,59.9,59.0,29.60,North,0,0.0,0.0,97,0.00,,---,0.04,VWS V12.08,2013-11-02 09:57:00,
2013-11-02 05:58:00,59.8,59.0,29.60,North,0,0.0,0.0,97,0.00,,---,0.04,VWS V12.08,2013-11-02 09:58:00,
2013-11-02 06:01:00,59.7,58.8,29.60,North,0,0.0,0.0,97,0.00,,---,0.04,VWS V12.08,2013-11-02 10:01:00,
2013-11-02 06:02:00,59.7,58.8,29.60,North,0,0.0,0.0,97,0.00,,---,0.04,VWS V12.08,2013-11-02 10:02:00,
2013-11-02 06:03:00,59.7,58.8,29.60,North,0,0.0,0.0,97,0.00,,---,0.04,VWS V12.08,2013-11-02 10:03:00,
2013-11-02 06:06:00,59.5,58.7,29.61,North,0,0.0,0.0,97,0.00,,---,0.04,VWS V12.08,2013-11-02 10:06:00,
2013-11-02 06:07:00,59.5,58.7,29.61,North,0,0.0,0.0,97,0.00,,---,0.04,VWS V12.08,2013-11-02 10:07:00,
2013-11-02 06:08:00,59.5,58.7,29.61,North,0,0.0,0.0,97,0.00,,---,0.04,VWS V12.08,2013-11-02 10:08:00,
2013-11-02 06:11:00,59.3,58.5,29.61,North,0,0.0,0.0,97,0.00,,---,0.04,VWS V12.08,2013-11-02 10:11:00,
2013-11-02 06:12:00,59.3,58.5,29.61,North,0,0.0,0.0,97,0.00,,---,0.04,VWS V12.08,2013-11-02 10:12:00,
2013-11-02 06:13:00,59.3,58.5,29.61,North,0,0.0,0.0,97,0.00,,---,0.04,VWS V12.08,2013-11-02 10:13:00,
2013-11-02 06:16:00,59.1,58.2,29.61,North,0,0.0,0.0,97,0.00,,---,0.04,VWS V12.08,2013-11-02 10:16:00,
2013-11-02 06:17:00,59.1,58.2,29.61,North,0,0.0,0.0,97,0.00,,---,0.04,VWS V12.08,2013-11-02 10:17:00,
2013-11-02 06:18:00,59.1,58.2,29.61,North,0,0.0,0.0,97,0.00,,---,0.04,VWS V12.08,2013-11-02 10:18:00,
2013-11-02 06:22:00,58.9,58.0,29.61,North,0,0.0,0.0,97,0.00,,---,0.04,VWS V12.08,2013-11-02 10:22:00,
2013-11-02 06:23:00,58.9,58.0,29.61,North,0,0.0,0.0,97,0.00,,---,0.04,VWS V12.08,2013-11-02 10:23:00,
2013-11-02 06:24:00,58.8,58.0,29.61,North,0,0.0,0.0,97,0.00,,---,0.04,VWS V12.08,2013-11-02 10:24:00,
2013-11-02 06:27:00,58.7,57.8,29.61,North,0,0.0,0.0,97,0.00,,---,0.04,VWS V12.08,2013-11-02 10:27:00,
2013-11-02 06:28:00,58.6,57.8,29.61,North,0,0.0,0.0,97,0.00,,---,0.04,VWS V12.08,2013-11-02 10:28:00,
2013-11-02 06:29:00,58.6,57.8,29.61,North,0,0.0,0.0,97,0.00,,---,0.04,VWS V12.08,2013-11-02 10:29:00,
2013-11-02 06:30:00,58.6,57.8,29.61,North,0,0.0,0.0,97,0.00,,---,0.04,VWS V12.08,2013-11-02 10:30:00,
2013-11-02 06:32:00,58.5,57.7,29.61,North,0,0.0,0.0,97,0.00,,---,0.04,VWS V12.08,2013-11-02 10:32:00,
2013-11-02 06:33:00,58.5,57.7,29.61,North,0,0.0,0.0,97,0.00,,---,0.04,VWS V12.08,2013-11-02 10:33:00,
2013-11-02 06:34:00,58.4,57.6,29.61,North,0,0.0,0.0,97,0.00,,---,0.04,VWS V12.08,2013-11-02 10:34:00,
2013-11-02 06:35:00,58.4,57.6,29.61,North,0,0.0,0.0,97,0.00,,---,0.04,VWS V12.08,2013-11-02 10:35:00,
2013-11-02 06:37:00,58.4,57.6,29.61,North,0,0.0,0.0,97,0.00,,---,0.04,VWS V12.08,2013-11-02 10:37:00,
2013-11-02 06:38:00,58.3,57.5,29.61,North,0,0.0,0.0,97,0.00,,---,0.04,VWS V12.08,2013-11-02 10:38:00,
2013-11-02 06:39:00,58.3,57.5,29.61,North,0,0.0,0.0,97,0.00,,---,0.04,VWS V12.08,2013-11-02 10:39:00,
2013-11-02 06:40:00,58.2,57.4,29.61,North,0,0.0,0.0,97,0.00,,---,0.04,VWS V12.08,2013-11-02 10:40:00,
2013-11-02 06:42:00,58.2,57.4,29.61,North,0,0.0,0.0,97,0.00,,---,0.04,VWS V12.08,2013-11-02 10:42:00,
2013-11-02 06:43:00,58.2,57.4,29.61,North,0,0.0,0.0,97,0.00,,---,0.04,VWS V12.08,2013-11-02 10:43:00,
2013-11-02 06:44:00,58.1,57.3,29.61,North,0,0.0,0.0,97,0.00,,---,0.04,VWS V12.08,2013-11-02 10:44:00,
2013-11-02 06:45:00,58.1,57.3,29.61,North,0,0.0,0.0,97,0.00,,---,0.04,VWS V12.08,2013-11-02 10:45:00,
2013-11-02 06:47:00,58.0,57.2,29.61,North,0,0.0,0.0,97,0.00,,---,0.04,VWS V12.08,2013-11-02 10:47:00,
2013-11-02 06:48:00,58.0,57.2,29.61,North,0,0.0,0.0,97,0.00,,---,0.04,VWS V12.08,2013-11-02 10:48:00,
2013-11-02 06:49:00,58.0,57.2,29.61,North,0,0.0,0.0,97,0.00,,---,0.04,VWS V12.08,2013-11-02 10:49:00,
2013-11-02 06:50:00,57.9,57.1,29.61,North,0,0.0,0.0,97,0.00,,---,0.04,VWS V12.08,2013-11-02 10:50:00,
2013-11-02 06:52:00,57.8,57.0,29.61,North,0,0.0,0.0,97,0.00,,---,0.04,VWS V12.08,2013-11-02 10:52:00,
2013-11-02 06:53:00,57.8,57.0,29.62,North,0,0.0,0.0,97,0.00,,---,0.04,VWS V12.08,2013-11-02 10:53:00,
2013-11-02 06:54:00,57.7,56.9,29.62,North,0,0.0,0.0,97,0.00,,---,0.04,VWS V12.08,2013-11-02 10:54:00,
2013-11-02 06:55:00,57.7,56.9,29.62,North,0,0.0,0.0,97,0.00,,---,0.04,VWS V12.08,2013-11-02 10:55:00,
2013-11-02 06:56:00,57.7,56.9,29.62,North,0,0.0,0.0,97,0.00,,---,0.04,VWS V12.08,2013-11-02 10:56:00,
2013-11-02 06:57:00,57.6,56.8,29.62,North,0,0.0,0.0,97,0.00,,---,0.04,VWS V12.08,2013-11-02 10:57:00,
2013-11-02 06:58:00,57.6,56.8,29.62,North,0,0.0,0.0,97,0.00,,---,0.04,VWS V12.08,2013-11-02 10:58:00,
2013-11-02 06:59:00,57.6,56.8,29.62,North,0,0.0,0.0,97,0.00,,---,0.04,VWS V12.08,2013-11-02 10:59:00,
2013-11-02 07:00:00,57.6,56.8,29.62,North,0,0.0,0.0,97,0.00,,---,0.04,VWS V12.08,2013-11-02 11:00:00,
2013-11-02 07:01:00,57.5,56.7,29.62,North,0,0.0,0.0,97,0.00,,---,0.04,VWS V12.08,2013-11-02 11:01:00,
2013-11-02 07:02:00,57.5,56.7,29.62,North,0,0.0,0.0,97,0.00,,---,0.04,VWS V12.08,2013-11-02 11:02:00,
2013-11-02 07:03:00,57.5,56.7,29.63,North,0,0.0,0.0,97,0.00,,---,0.04,VWS V12.08,2013-11-02 11:03:00,
2013-11-02 07:05:00,57.5,56.7,29.63,North,0,0.0,0.0,97,0.00,,---,0.04,VWS V12.08,2013-11-02 11:05:00,
2013-11-02 07:06:00,57.4,56.6,29.63,North,0,0.0,0.0,97,0.00,,---,0.04,VWS V12.08,2013-11-02 11:06:00,
2013-11-02 07:07:00,57.4,56.6,29.63,North,0,0.0,0.0,97,0.00,,---,0.04,VWS V12.08,2013-11-02 11:07:00,
2013-11-02 07:08:00,57.4,56.6,29.63,North,0,0.0,0.0,97,0.00,,---,0.04,VWS V12.08,2013-11-02 11:08:00,
2013-11-02 07:10:00,57.4,56.6,29.63,North,0,0.0,0.0,97,0.00,,---,0.04,VWS V12.08,2013-11-02 11:10:00,
2013-11-02 07:11:00,57.4,56.6,29.63,North,0,0.0,0.0,97,0.00,,---,0.04,VWS V12.08,2013-11-02 11:11:00,
2013-11-02 07:12:00,57.3,56.5,29.63,North,0,0.0,0.0,97,0.00,,---,0.04,VWS V12.08,2013-11-02 11:12:00,
2013-11-02 07:14:00,57.3,56.5,29.62,North,0,0.0,0.0,97,0.00,,---,0.04,VWS V12.08,2013-11-02 11:14:00,
2013-11-02 07:15:00,57.3,56.5,29.62,North,0,0.0,0.0,97,0.00,,---,0.04,VWS V12.08,2013-11-02 11:15:00,
2013-11-02 07:16:00,57.3,56.5,29.62,North,0,0.0,0.0,97,0.00,,---,0.04,VWS V12.08,2013-11-02 11:16:00,
2013-11-02 07:17:00,57.3,56.5,29.62,North,0,0.0,0.0,97,0.00,,---,0.04,VWS V12.08,2013-11-02 11:17:00,
2013-11-02 07:18:00,57.3,56.5,29.62,North,0,0.0,0.0,97,0.00,,---,0.04,VWS V12.08,2013-11-02 11:18:00,
2013-11-02 07:19:00,57.2,56.4,29.62,North,0,0.0,0.0,97,0.00,,---,0.04,VWS V12.08,2013-11-02 11:19:00,
2013-11-02 07:20:00,57.2,56.4,29.62,North,0,0.0,0.0,97,0.00,,---,0.04,VWS V12.08,2013-11-02 11:20:00,
2013-11-02 07:21:00,57.1,56.3,29.62,North,0,0.0,0.0,97,0.00,,---,0.04,VWS V12.08,2013-11-02 11:21:00,
2013-11-02 07:22:00,57.1,56.3,29.61,North,0,0.0,0.0,97,0.00,,---,0.04,VWS V12.08,2013-11-02 11:22:00,
2013-11-02 07:23:00,57.1,56.3,29.61,North,0,0.0,0.0,97,0.00,,---,0.04,VWS V12.08,2013-11-02 11:23:00,
2013-11-02 07:24:00,57.0,56.2,29.61,North,0,0.0,0.0,97,0.00,,---,0.04,VWS V12.08,2013-11-02 11:24:00,
2013-11-02 07:25:00,56.9,56.1,29.62,North,0,0.0,0.0,97,0.00,,---,0.04,VWS V12.08,2013-11-02 11:25:00,
2013-11-02 07:26:00,56.9,56.1,29.62,North,0,0.0,0.0,97,0.00,,---,0.04,VWS V12.08,2013-11-02 11:26:00,
2013-11-02 07:28:00,56.8,56.0,29.62,North,0,0.0,0.0,97,0.00,,---,0.04,VWS V12.08,2013-11-02 11:28:00,
2013-11-02 07:29:00,56.8,56.0,29.62,North,0,0.0,0.0,97,0.00,,---,0.04,VWS V12.08,2013-11-02 11:29:00,
2013-11-02 07:30:00,56.7,55.9,29.62,North,0,0.0,0.0,97,0.00,,---,0.04,VWS V12.08,2013-11-02 11:30:00,
2013-11-02 07:31:00,56.7,55.9,29.62,North,0,0.0,0.0,97,0.00,,---,0.04,VWS V12.08,2013-11-02 11:31:00,
2013-11-02 07:32:00,56.7,55.9,29.62,North,0,0.0,0.0,97,0.00,,---,0.04,VWS V12.08,2013-11-02 11:32:00,
2013-11-02 07:33:00,56.6,55.8,29.62,North,0,0.0,0.0,97,0.00,,---,0.04,VWS V12.08,2013-11-02 11:33:00,
2013-11-02 07:34:00,56.6,55.8,29.62,North,0,0.0,0.0,97,0.00,,---,0.04,VWS V12.08,2013-11-02 11:34:00,
2013-11-02 07:35:00,56.6,55.8,29.62,North,0,0.0,0.0,97,0.00,,---,0.04,VWS V12.08,2013-11-02 11:35:00,
2013-11-02 07:36:00,56.6,55.8,29.62,North,0,0.0,0.0,97,0.00,,---,0.04,VWS V12.08,2013-11-02 11:36:00,
2013-11-02 07:37:00,56.5,55.7,29.62,North,0,0.0,0.0,97,0.00,,---,0.04,VWS V12.08,2013-11-02 11:37:00,
2013-11-02 07:38:00,56.5,55.7,29.62,North,0,0.0,0.0,97,0.00,,---,0.04,VWS V12.08,2013-11-02 11:38:00,
2013-11-02 07:39:00,56.4,55.6,29.62,North,0,0.0,0.0,97,0.00,,---,0.04,VWS V12.08,2013-11-02 11:39:00,
2013-11-02 07:40:00,56.4,55.6,29.62,North,0,0.0,0.0,97,0.00,,---,0.04,VWS V12.08,2013-11-02 11:40:00,
2013-11-02 07:41:00,56.4,55.6,29.62,North,0,0.0,0.0,97,0.00,,---,0.04,VWS V12.08,2013-11-02 11:41:00,
2013-11-02 07:42:00,56.4,55.6,29.62,North,0,0.0,0.0,97,0.00,,---,0.04,VWS V12.08,2013-11-02 11:42:00,
2013-11-02 07:43:00,56.4,55.6,29.62,North,0,0.0,0.0,97,0.00,,---,0.04,VWS V12.08,2013-11-02 11:43:00,
2013-11-02 07:44:00,56.3,55.5,29.62,North,0,0.0,0.0,97,0.00,,---,0.04,VWS V12.08,2013-11-02 11:44:00,
2013-11-02 07:46:00,56.3,55.5,29.62,North,0,0.0,0.0,97,0.00,,---,0.04,VWS V12.08,2013-11-02 11:46:00,
2013-11-02 07:47:00,56.2,55.4,29.62,North,0,0.0,0.0,97,0.00,,---,0.04,VWS V12.08,2013-11-02 11:47:00,
2013-11-02 07:48:00,56.2,55.4,29.62,North,0,0.0,0.0,97,0.00,,---,0.04,VWS V12.08,2013-11-02 11:48:00,
2013-11-02 07:49:00,56.2,55.4,29.62,North,0,0.0,0.0,97,0.00,,---,0.04,VWS V12.08,2013-11-02 11:49:00,
2013-11-02 07:51:00,56.2,55.4,29.63,North,0,0.0,0.0,97,0.00,,---,0.04,VWS V12.08,2013-11-02 11:51:00,
2013-11-02 07:52:00,56.1,55.3,29.63,North,0,0.0,0.0,97,0.00,,---,0.04,VWS V12.08,2013-11-02 11:52:00,
2013-11-02 07:53:00,56.1,55.3,29.63,North,0,0.0,0.0,97,0.00,,---,0.04,VWS V12.08,2013-11-02 11:53:00,
2013-11-02 07:54:00,56.1,55.3,29.63,North,0,0.0,0.0,97,0.00,,---,0.04,VWS V12.08,2013-11-02 11:54:00,
2013-11-02 07:55:00,56.1,55.3,29.63,North,0,0.0,0.0,97,0.00,,---,0.04,VWS V12.08,2013-11-02 11:55:00,
2013-11-02 07:56:00,56.1,55.3,29.63,North,0,0.0,0.0,97,0.00,,---,0.04,VWS V12.08,2013-11-02 11:56:00,
2013-11-02 07:57:00,56.1,55.3,29.63,North,0,0.0,0.0,97,0.00,,---,0.04,VWS V12.08,2013-11-02 11:57:00,
2013-11-02 07:58:00,56.1,55.3,29.63,North,0,0.0,0.0,97,0.00,,---,0.04,VWS V12.08,2013-11-02 11:58:00,
2013-11-02 08:00:00,56.1,55.3,29.63,North,0,0.0,0.0,97,0.00,,---,0.04,VWS V12.08,2013-11-02 12:00:00,
2013-11-02 08:01:00,56.1,55.3,29.63,North,0,0.0,0.0,97,0.00,,---,0.04,VWS V12.08,2013-11-02 12:01:00,
2013-11-02 08:03:00,56.1,55.3,29.63,North,0,0.0,0.0,97,0.00,,---,0.04,VWS V12.08,2013-11-02 12:03:00,
2013-11-02 08:05:00,56.0,55.2,29.63,North,0,0.0,0.0,97,0.00,,---,0.04,VWS V12.08,2013-11-02 12:05:00,
2013-11-02 08:06:00,56.0,55.2,29.63,North,0,0.0,0.0,97,0.00,,---,0.04,VWS V12.08,2013-11-02 12:06:00,
2013-11-02 08:07:00,56.0,55.2,29.62,North,0,0.0,0.0,97,0.00,,---,0.04,VWS V12.08,2013-11-02 12:07:00,
2013-11-02 08:08:00,56.0,55.2,29.62,North,0,0.0,0.0,97,0.00,,---,0.04,VWS V12.08,2013-11-02 12:08:00,
2013-11-02 08:09:00,56.0,55.2,29.62,North,0,0.0,0.0,97,0.00,,---,0.04,VWS V12.08,2013-11-02 12:09:00,
2013-11-02 08:10:00,56.0,55.2,29.63,North,0,0.0,0.0,97,0.00,,---,0.04,VWS V12.08,2013-11-02 12:10:00,
2013-11-02 08:11:00,55.9,55.1,29.62,North,0,0.0,0.0,97,0.00,,---,0.04,VWS V12.08,2013-11-02 12:11:00,
2013-11-02 08:12:00,55.9,55.1,29.62,North,0,0.0,0.0,97,0.00,,---,0.04,VWS V12.08,2013-11-02 12:12:00,
2013-11-02 08:13:00,55.9,55.1,29.62,NE,55,4.0,4.0,97,0.00,,---,0.04,VWS V12.08,2013-11-02 12:13:00,
2013-11-02 08:14:00,55.9,55.1,29.62,NE,55,5.0,5.0,97,0.00,,---,0.04,VWS V12.08,2013-11-02 12:14:00,
2013-11-02 08:15:00,55.8,55.0,29.62,ENE,57,6.0,9.0,97,0.00,,---,0.04,VWS V12.08,2013-11-02 12:15:00,
2013-11-02 08:16:00,55.8,55.0,29.62,ENE,59,4.0,9.0,97,0.00,,---,0.04,VWS V12.08,2013-11-02 12:16:00,
2013-11-02 08:17:00,55.7,54.9,29.62,ENE,59,4.0,9.0,97,0.00,,---,0.04,VWS V12.08,2013-11-02 12:17:00,
2013-11-02 08:18:00,55.7,54.9,29.62,ENE,59,4.0,9.0,97,0.00,,---,0.04,VWS V12.08,2013-11-02 12:18:00,
2013-11-02 08:19:00,55.7,54.9,29.62,ENE,59,4.0,9.0,97,0.00,,---,0.04,VWS V12.08,2013-11-02 12:19:00,
2013-11-02 08:20:00,55.7,54.9,29.62,NE,54,2.0,9.0,97,0.00,,---,0.04,VWS V12.08,2013-11-02 12:20:00,
2013-11-02 08:21:00,55.7,54.9,29.62,NE,54,4.0,4.0,97,0.00,,---,0.04,VWS V12.08,2013-11-02 12:21:00,
2013-11-02 08:22:00,55.6,54.8,29.62,NE,54,4.0,5.0,97,0.00,,---,0.04,VWS V12.08,2013-11-02 12:22:00,
2013-11-02 08:23:00,55.6,54.8,29.62,NE,55,4.0,5.0,97,0.00,,---,0.04,VWS V12.08,2013-11-02 12:23:00,
2013-11-02 08:24:00,55.6,54.8,29.62,NE,55,7.0,7.0,97,0.00,,---,0.04,VWS V12.08,2013-11-02 12:24:00,
2013-11-02 08:25:00,55.6,54.8,29.62,ENE,63,6.0,10.0,97,0.00,,---,0.04,VWS V12.08,2013-11-02 12:25:00,
2013-11-02 08:26:00,55.6,54.8,29.62,ENE,61,6.0,10.0,97,0.00,,---,0.04,VWS V12.08,2013-11-02 12:26:00,
2013-11-02 08:28:00,55.6,54.8,29.62,ENE,61,6.0,10.0,97,0.00,,---,0.04,VWS V12.08,2013-11-02 12:28:00,
2013-11-02 08:29:00,55.6,54.8,29.62,ENE,63,6.0,10.0,97,0.00,,---,0.04,VWS V12.08,2013-11-02 12:29:00,
2013-11-02 08:30:00,55.7,54.9,29.62,ENE,61,3.0,10.0,97,0.00,,---,0.04,VWS V12.08,2013-11-02 12:30:00,
2013-11-02 08:31:00,55.7,54.9,29.62,ENE,61,4.0,7.0,97,0.00,,---,0.04,VWS V12.08,2013-11-02 12:31:00,
2013-11-02 08:33:00,55.7,54.9,29.62,ENE,61,5.0,7.0,97,0.00,,---,0.04,VWS V12.08,2013-11-02 12:33:00,
2013-11-02 08:34:00,55.7,54.9,29.62,ENE,69,5.0,9.0,97,0.00,,---,0.04,VWS V12.08,2013-11-02 12:34:00,
2013-11-02 08:35:00,55.8,55.0,29.62,ENE,68,5.0,9.0,97,0.00,,---,0.04,VWS V12.08,2013-11-02 12:35:00,
2013-11-02 08:36:00,55.8,55.0,29.62,ENE,60,7.0,9.0,97,0.00,,---,0.04,VWS V12.08,2013-11-02 12:36:00,
2013-11-02 08:38:00,55.9,55.1,29.62,ENE,57,7.0,10.0,97,0.00,,---,0.04,VWS V12.08,2013-11-02 12:38:00,
2013-11-02 08:39:00,56.0,55.2,29.62,ENE,66,6.0,10.0,97,0.00,,---,0.04,VWS V12.08,2013-11-02 12:39:00,
2013-11-02 08:40:00,56.2,55.4,29.62,ENE,66,4.0,10.0,97,0.00,,---,0.04,VWS V12.08,2013-11-02 12:40:00,
2013-11-02 08:41:00,56.4,55.6,29.62,ENE,66,5.0,6.0,97,0.00,,---,0.04,VWS V12.08,2013-11-02 12:41:00,
2013-11-02 08:42:00,56.4,55.6,29.62,ENE,66,5.0,6.0,97,0.00,,---,0.04,VWS V12.08,2013-11-02 12:42:00,
2013-11-02 08:43:00,56.7,56.1,29.62,ENE,66,3.0,6.0,98,0.00,,---,0.04,VWS V12.08,2013-11-02 12:43:00,
2013-11-02 08:44:00,56.8,56.2,29.62,ENE,66,5.0,6.0,98,0.00,,---,0.04,VWS V12.08,2013-11-02 12:44:00,
2013-11-02 08:45:00,57.1,56.5,29.62,ENE,62,6.0,9.0,98,0.00,,---,0.04,VWS V12.08,2013-11-02 12:45:00,
2013-11-02 08:47:00,57.4,56.8,29.62,ENE,69,9.0,9.0,98,0.00,,---,0.04,VWS V12.08,2013-11-02 12:47:00,
2013-11-02 08:48:00,57.6,57.0,29.62,East,80,6.0,9.0,98,0.00,,---,0.04,VWS V12.08,2013-11-02 12:48:00,
2013-11-02 08:49:00,57.8,57.2,29.62,East,84,6.0,9.0,98,0.00,,---,0.04,VWS V12.08,2013-11-02 12:49:00,
2013-11-02 08:50:00,57.9,57.3,29.62,East,89,7.0,9.0,98,0.00,,---,0.04,VWS V12.08,2013-11-02 12:50:00,
2013-11-02 08:52:00,58.0,57.2,29.62,East,84,8.0,9.0,97,0.00,,---,0.04,VWS V12.08,2013-11-02 12:52:00,
2013-11-02 08:53:00,57.9,57.1,29.61,East,85,8.0,9.0,97,0.00,,---,0.04,VWS V12.08,2013-11-02 12:53:00,
2013-11-02 08:54:00,57.9,57.1,29.61,East,84,9.0,10.0,97,0.00,,---,0.04,VWS V12.08,2013-11-02 12:54:00,
2013-11-02 08:55:00,57.9,57.1,29.62,East,83,6.0,10.0,97,0.00,,---,0.04,VWS V12.08,2013-11-02 12:55:00,
2013-11-02 08:57:00,57.8,57.0,29.62,East,82,6.0,10.0,97,0.00,,---,0.04,VWS V12.08,2013-11-02 12:57:00,
2013-11-02 08:58:00,57.8,57.0,29.62,East,82,5.0,10.0,97,0.00,,---,0.04,VWS V12.08,2013-11-02 12:58:00,
2013-11-02 08:59:00,57.8,57.0,29.62,East,82,4.0,10.0,97,0.00,,---,0.04,VWS V12.08,2013-11-02 12:59:00,
2013-11-02 09:00:00,57.8,57.0,29.62,East,82,4.0,10.0,97,0.00,,---,0.04,VWS V12.08,2013-11-02 13:00:00,
2013-11-02 09:02:00,57.7,56.6,29.62,ENE,62,5.0,7.0,96,0.00,,---,0.04,VWS V12.08,2013-11-02 13:02:00,
2013-11-02 09:04:00,57.6,56.5,29.62,ENE,63,4.0,7.0,96,0.00,,---,0.04,VWS V12.08,2013-11-02 13:04:00,
2013-11-02 09:05:00,57.5,56.4,29.62,ENE,63,3.0,7.0,96,0.00,,---,0.04,VWS V12.08,2013-11-02 13:05:00,
2013-11-02 09:07:00,57.5,56.4,29.62,ENE,63,3.0,7.0,96,0.00,,---,0.04,VWS V12.08,2013-11-02 13:07:00,
2013-11-02 09:09:00,57.4,56.3,29.62,ENE,63,6.0,7.0,96,0.00,,---,0.04,VWS V12.08,2013-11-02 13:09:00,
2013-11-02 09:10:00,57.3,56.2,29.62,ENE,63,3.0,7.0,96,0.00,,---,0.04,VWS V12.08,2013-11-02 13:10:00,
2013-11-02 09:12:00,57.3,56.2,29.61,NE,52,5.0,6.0,96,0.00,,---,0.04,VWS V12.08,2013-11-02 13:12:00,
2013-11-02 09:14:00,57.2,56.1,29.61,NE,54,4.0,8.0,96,0.00,,---,0.04,VWS V12.08,2013-11-02 13:14:00,
2013-11-02 09:15:00,57.1,56.0,29.61,NE,54,5.0,8.0,96,0.00,,---,0.04,VWS V12.08,2013-11-02 13:15:00,
2013-11-02 09:16:00,57.1,56.0,29.61,NE,54,4.0,8.0,96,0.00,,---,0.04,VWS V12.08,2013-11-02 13:16:00,
2013-11-02 09:17:00,57.0,55.9,29.61,NE,54,3.0,8.0,96,0.00,,---,0.04,VWS V12.08,2013-11-02 13:17:00,
2013-11-02 09:20:00,56.9,55.8,29.61,NE,54,4.0,8.0,96,0.00,,---,0.04,VWS V12.08,2013-11-02 13:20:00,
2013-11-02 09:21:00,56.9,55.8,29.61,NE,54,4.0,4.0,96,0.00,,---,0.04,VWS V12.08,2013-11-02 13:21:00,
2013-11-02 09:22:00,56.8,55.7,29.61,NE,54,4.0,4.0,96,0.00,,---,0.04,VWS V12.08,2013-11-02 13:22:00,
2013-11-02 09:25:00,56.7,55.6,29.62,NE,54,3.0,5.0,96,0.00,,---,0.04,VWS V12.08,2013-11-02 13:25:00,
2013-11-02 09:26:00,56.7,55.6,29.61,NE,54,5.0,6.0,96,0.00,,---,0.04,VWS V12.08,2013-11-02 13:26:00,
2013-11-02 09:27:00,56.7,55.6,29.61,NE,54,3.0,6.0,96,0.00,,---,0.04,VWS V12.08,2013-11-02 13:27:00,
2013-11-02 09:30:00,56.6,55.5,29.61,NE,54,3.0,6.0,96,0.00,,---,0.04,VWS V12.08,2013-11-02 13:30:00,
2013-11-02 09:31:00,56.6,55.5,29.61,NE,54,3.0,6.0,96,0.00,,---,0.04,VWS V12.08,2013-11-02 13:31:00,
2013-11-02 09:32:00,56.6,55.5,29.61,NE,54,3.0,4.0,96,0.00,,---,0.04,VWS V12.08,2013-11-02 13:32:00,
2013-11-02 09:33:00,56.6,55.5,29.61,NE,54,4.0,4.0,96,0.00,,---,0.04,VWS V12.08,2013-11-02 13:33:00,
2013-11-02 09:35:00,56.6,55.5,29.61,NE,54,3.0,5.0,96,0.00,,---,0.04,VWS V12.08,2013-11-02 13:35:00,
2013-11-02 09:36:00,56.6,55.5,29.61,NE,54,2.0,5.0,96,0.00,,---,0.04,VWS V12.08,2013-11-02 13:36:00,
2013-11-02 09:38:00,56.7,55.6,29.61,NE,54,3.0,5.0,96,0.00,,---,0.04,VWS V12.08,2013-11-02 13:38:00,
2013-11-02 09:40:00,57.0,56.2,29.61,NE,54,3.0,5.0,97,0.00,,---,0.04,VWS V12.08,2013-11-02 13:40:00,
2013-11-02 09:41:00,57.0,56.2,29.61,NE,54,4.0,5.0,97,0.00,,---,0.04,VWS V12.08,2013-11-02 13:41:00,
2013-11-02 09:43:00,57.2,56.4,29.61,NE,54,1.0,4.0,97,0.00,,---,0.04,VWS V12.08,2013-11-02 13:43:00,
2013-11-02 09:45:00,57.4,56.3,29.61,NE,54,3.0,4.0,96,0.00,,---,0.04,VWS V12.08,2013-11-02 13:45:00,
2013-11-02 09:46:00,57.4,56.3,29.61,NE,54,3.0,4.0,96,0.00,,---,0.04,VWS V12.08,2013-11-02 13:46:00,
2013-11-02 09:48:00,57.5,56.4,29.61,NE,54,3.0,4.0,96,0.00,,---,0.04,VWS V12.08,2013-11-02 13:48:00,
2013-11-02 09:50:00,57.5,56.4,29.61,NE,54,1.0,4.0,96,0.00,,---,0.04,VWS V12.08,2013-11-02 13:50:00,
2013-11-02 09:51:00,57.6,56.5,29.61,NE,54,0.0,1.0,96,0.00,,---,0.04,VWS V12.08,2013-11-02 13:51:00,
2013-11-02 09:52:00,57.6,56.5,29.61,NE,54,1.0,2.0,96,0.00,,---,0.04,VWS V12.08,2013-11-02 13:52:00,
2013-11-02 09:53:00,57.6,56.5,29.61,NE,54,2.0,3.0,96,0.00,,---,0.04,VWS V12.08,2013-11-02 13:53:00,
2013-11-02 09:55:00,57.7,56.6,29.61,NE,54,0.0,3.0,96,0.00,,---,0.04,VWS V12.08,2013-11-02 13:55:00,
2013-11-02 09:56:00,57.7,56.6,29.61,NE,54,0.0,3.0,96,0.00,,---,0.04,VWS V12.08,2013-11-02 13:56:00,
2013-11-02 09:57:00,57.7,56.6,29.61,NE,54,3.0,3.0,96,0.00,,---,0.04,VWS V12.08,2013-11-02 13:57:00,
2013-11-02 09:58:00,57.8,56.7,29.61,NE,54,1.0,3.0,96,0.00,,---,0.04,VWS V12.08,2013-11-02 13:58:00,
2013-11-02 10:01:00,58.2,57.4,29.61,NE,54,3.0,4.0,97,0.00,,---,0.04,VWS V12.08,2013-11-02 14:01:00,
2013-11-02 10:02:00,58.3,57.5,29.61,NE,54,3.0,3.0,97,0.00,,---,0.04,VWS V12.08,2013-11-02 14:02:00,
2013-11-02 10:03:00,58.5,57.7,29.61,NE,54,3.0,4.0,97,0.00,,---,0.04,VWS V12.08,2013-11-02 14:03:00,
2013-11-02 10:04:00,58.6,57.8,29.61,NE,54,4.0,4.0,97,0.00,,---,0.04,VWS V12.08,2013-11-02 14:04:00,
2013-11-02 10:06:00,58.9,58.0,29.61,NE,54,4.0,5.0,97,0.00,,---,0.04,VWS V12.08,2013-11-02 14:06:00,
2013-11-02 10:07:00,59.0,57.9,29.61,NE,54,5.0,5.0,96,0.00,,---,0.04,VWS V12.08,2013-11-02 14:07:00,
2013-11-02 10:08:00,59.1,58.0,29.61,NE,54,4.0,6.0,96,0.00,,---,0.04,VWS V12.08,2013-11-02 14:08:00,
2013-11-02 10:09:00,59.2,58.1,29.61,NE,54,2.0,6.0,96,0.00,,---,0.04,VWS V12.08,2013-11-02 14:09:00,
2013-11-02 10:11:00,59.4,58.5,29.61,NE,54,1.0,1.0,97,0.00,,---,0.04,VWS V12.08,2013-11-02 14:11:00,
2013-11-02 10:12:00,59.5,58.7,29.61,NE,54,2.0,3.0,97,0.00,,---,0.04,VWS V12.08,2013-11-02 14:12:00,
2013-11-02 10:13:00,59.5,58.4,29.61,NE,54,3.0,4.0,96,0.00,,---,0.04,VWS V12.08,2013-11-02 14:13:00,
2013-11-02 10:14:00,59.6,58.5,29.61,NE,54,3.0,6.0,96,0.00,,---,0.04,VWS V12.08,2013-11-02 14:14:00,
2013-11-02 10:16:00,59.6,58.5,29.61,NE,54,4.0,6.0,96,0.00,,---,0.04,VWS V12.08,2013-11-02 14:16:00,
2013-11-02 10:17:00,59.6,58.5,29.61,NE,54,1.0,6.0,96,0.00,,---,0.04,VWS V12.08,2013-11-02 14:17:00,
2013-11-02 10:18:00,59.7,58.6,29.61,NE,54,3.0,6.0,96,0.00,,---,0.04,VWS V12.08,2013-11-02 14:18:00,
2013-11-02 10:19:00,59.7,58.6,29.61,NE,54,3.0,6.0,96,0.00,,---,0.04,VWS V12.08,2013-11-02 14:19:00,
2013-11-02 10:21:00,59.8,58.4,29.62,NE,54,5.0,5.0,95,0.00,,---,0.04,VWS V12.08,2013-11-02 14:21:00,
2013-11-02 10:22:00,59.7,58.3,29.62,NE,54,3.0,5.0,95,0.00,,---,0.04,VWS V12.08,2013-11-02 14:22:00,
2013-11-02 10:23:00,59.7,58.3,29.62,NE,54,5.0,5.0,95,0.00,,---,0.04,VWS V12.08,2013-11-02 14:23:00,
2013-11-02 10:24:00,59.8,58.4,29.62,NE,54,4.0,5.0,95,0.00,,---,0.04,VWS V12.08,2013-11-02 14:24:00,
2013-11-02 10:26:00,59.9,58.8,29.61,NE,54,5.0,6.0,96,0.00,,---,0.04,VWS V12.08,2013-11-02 14:26:00,
2013-11-02 10:27:00,60.0,58.6,29.61,NE,54,4.0,6.0,95,0.00,,---,0.04,VWS V12.08,2013-11-02 14:27:00,
2013-11-02 10:28:00,60.0,58.6,29.61,NE,54,4.0,6.0,95,0.00,,---,0.04,VWS V12.08,2013-11-02 14:28:00,
2013-11-02 10:29:00,60.1,58.7,29.61,NE,40,5.0,8.0,95,0.00,,---,0.04,VWS V12.08,2013-11-02 14:29:00,
2013-11-02 10:31:00,60.3,58.9,29.61,NE,40,2.0,2.0,95,0.00,,---,0.04,VWS V12.08,2013-11-02 14:31:00,
2013-11-02 10:32:00,60.4,59.0,29.61,NE,40,1.0,3.0,95,0.00,,---,0.04,VWS V12.08,2013-11-02 14:32:00,
2013-11-02 10:33:00,60.4,59.0,29.61,NE,40,3.0,3.0,95,0.00,,---,0.04,VWS V12.08,2013-11-02 14:33:00,
2013-11-02 10:34:00,60.6,59.5,29.61,NE,40,1.0,3.0,96,0.00,,---,0.04,VWS V12.08,2013-11-02 14:34:00,
2013-11-02 10:37:00,61.1,60.0,29.61,NE,40,0.0,3.0,96,0.00,,---,0.04,VWS V12.08,2013-11-02 14:37:00,
2013-11-02 10:38:00,61.2,60.0,29.61,NE,40,1.0,3.0,96,0.00,,---,0.04,VWS V12.08,2013-11-02 14:38:00,
2013-11-02 10:39:00,61.5,60.3,29.61,NE,40,2.0,4.0,96,0.00,,---,0.04,VWS V12.08,2013-11-02 14:39:00,
2013-11-02 10:40:00,61.6,60.5,29.61,NE,40,3.0,4.0,96,0.00,,---,0.04,VWS V12.08,2013-11-02 14:40:00,
2013-11-02 10:42:00,62.0,60.8,29.61,NE,40,0.0,1.0,96,0.00,,---,0.04,VWS V12.08,2013-11-02 14:42:00,
2013-11-02 10:43:00,62.0,60.8,29.61,NE,40,1.0,1.0,96,0.00,,---,0.04,VWS V12.08,2013-11-02 14:43:00,
2013-11-02 10:44:00,62.4,61.2,29.61,NE,40,0.0,1.0,96,0.00,,---,0.04,VWS V12.08,2013-11-02 14:44:00,
2013-11-02 10:45:00,62.5,61.3,29.61,NE,40,0.0,1.0,96,0.00,,---,0.04,VWS V12.08,2013-11-02 14:45:00,
2013-11-02 10:47:00,62.6,61.2,29.61,ENE,59,3.0,5.0,95,0.00,,---,0.04,VWS V12.08,2013-11-02 14:47:00,
2013-11-02 10:48:00,62.6,61.2,29.61,ENE,59,1.0,5.0,95,0.00,,---,0.04,VWS V12.08,2013-11-02 14:48:00,
2013-11-02 10:49:00,62.6,60.8,29.61,ENE,59,5.0,6.0,94,0.00,,---,0.04,VWS V12.08,2013-11-02 14:49:00,
2013-11-02 10:50:00,62.6,60.8,29.61,NE,46,5.0,7.0,94,0.00,,---,0.04,VWS V12.08,2013-11-02 14:50:00,
2013-11-02 10:52:00,62.6,61.5,29.61,ENE,63,5.0,6.0,96,0.00,,---,0.04,VWS V12.08,2013-11-02 14:52:00,
2013-11-02 10:53:00,62.6,60.5,29.61,ENE,63,3.0,6.0,93,0.00,,---,0.04,VWS V12.08,2013-11-02 14:53:00,
2013-11-02 10:54:00,62.6,60.5,29.61,ENE,63,4.0,6.0,93,0.00,,---,0.04,VWS V12.08,2013-11-02 14:54:00,
2013-11-02 10:55:00,62.6,60.5,29.61,ENE,63,2.0,6.0,93,0.00,,---,0.04,VWS V12.08,2013-11-02 14:55:00,
2013-11-02 10:56:00,62.6,60.5,29.61,ENE,63,6.0,6.0,93,0.00,,---,0.04,VWS V12.08,2013-11-02 14:56:00,
2013-11-02 10:57:00,62.6,60.5,29.61,ENE,64,4.0,6.0,93,0.00,,---,0.04,VWS V12.08,2013-11-02 14:57:00,
2013-11-02 10:59:00,62.6,60.5,29.61,ENE,64,2.0,6.0,93,0.00,,---,0.04,VWS V12.08,2013-11-02 14:59:00,
2013-11-02 11:01:00,62.6,60.5,29.61,ENE,64,3.0,6.0,93,0.00,,---,0.04,VWS V12.08,2013-11-02 15:01:00,
2013-11-02 11:02:00,62.7,60.7,29.61,ENE,64,0.0,3.0,93,0.00,,---,0.04,VWS V12.08,2013-11-02 15:02:00,
2013-11-02 11:03:00,62.7,60.7,29.61,ENE,63,3.0,3.0,93,0.00,,---,0.04,VWS V12.08,2013-11-02 15:03:00,
2013-11-02 11:04:00,62.7,60.7,29.61,ENE,64,2.0,3.0,93,0.00,,---,0.04,VWS V12.08,2013-11-02 15:04:00,
2013-11-02 11:05:00,62.7,60.7,29.61,ENE,63,2.0,3.0,93,0.00,,---,0.04,VWS V12.08,2013-11-02 15:05:00,
2013-11-02 11:06:00,62.8,60.8,29.61,ENE,64,1.0,3.0,93,0.00,,---,0.04,VWS V12.08,2013-11-02 15:06:00,
2013-11-02 11:07:00,62.9,60.8,29.61,ENE,63,1.0,3.0,93,0.00,,---,0.04,VWS V12.08,2013-11-02 15:07:00,
2013-11-02 11:08:00,62.9,60.8,29.61,ENE,63,2.0,3.0,93,0.00,,---,0.04,VWS V12.08,2013-11-02 15:08:00,
2013-11-02 11:09:00,63.0,61.0,29.61,ENE,64,2.0,3.0,93,0.00,,---,0.04,VWS V12.08,2013-11-02 15:09:00,
2013-11-02 11:10:00,63.0,61.0,29.61,ENE,64,3.0,3.0,93,0.00,,---,0.04,VWS V12.08,2013-11-02 15:10:00,
2013-11-02 11:11:00,63.1,61.0,29.61,ENE,64,3.0,3.0,93,0.00,,---,0.04,VWS V12.08,2013-11-02 15:11:00,
2013-11-02 11:12:00,63.2,61.2,29.61,ENE,64,1.0,3.0,93,0.00,,---,0.04,VWS V12.08,2013-11-02 15:12:00,
2013-11-02 11:13:00,63.2,61.2,29.61,ENE,64,3.0,4.0,93,0.00,,---,0.04,VWS V12.08,2013-11-02 15:13:00,
2013-11-02 11:14:00,63.3,61.2,29.61,ENE,64,2.0,4.0,93,0.00,,---,0.04,VWS V12.08,2013-11-02 15:14:00,
2013-11-02 11:15:00,63.4,61.3,29.61,ENE,63,3.0,4.0,93,0.00,,---,0.04,VWS V12.08,2013-11-02 15:15:00,
2013-11-02 11:16:00,63.4,61.3,29.61,ENE,64,1.0,4.0,93,0.00,,---,0.04,VWS V12.08,2013-11-02 15:16:00,
2013-11-02 11:17:00,63.5,61.1,29.61,ENE,64,2.0,4.0,92,0.00,,---,0.04,VWS V12.08,2013-11-02 15:17:00,
2013-11-02 11:18:00,63.6,61.2,29.61,ENE,64,2.0,4.0,92,0.00,,---,0.04,VWS V12.08,2013-11-02 15:18:00,
2013-11-02 11:19:00,63.6,61.2,29.61,ENE,64,2.0,4.0,92,0.00,,---,0.04,VWS V12.08,2013-11-02 15:19:00,
2013-11-02 11:20:00,63.7,61.3,29.61,ENE,63,1.0,4.0,92,0.00,,---,0.04,VWS V12.08,2013-11-02 15:20:00,
2013-11-02 11:21:00,63.7,61.3,29.61,ENE,64,2.0,3.0,92,0.00,,---,0.04,VWS V12.08,2013-11-02 15:21:00,
2013-11-02 11:22:00,63.8,61.4,29.61,ENE,64,3.0,3.0,92,0.00,,---,0.04,VWS V12.08,2013-11-02 15:22:00,
2013-11-02 11:23:00,63.8,61.4,29.61,ENE,64,3.0,3.0,92,0.00,,---,0.04,VWS V12.08,2013-11-02 15:23:00,
2013-11-02 11:24:00,63.9,61.5,29.61,ENE,63,2.0,4.0,92,0.00,,---,0.04,VWS V12.08,2013-11-02 15:24:00,
2013-11-02 11:25:00,64.0,61.6,29.61,ENE,64,3.0,4.0,92,0.00,,---,0.04,VWS V12.08,2013-11-02 15:25:00,
2013-11-02 11:26:00,64.0,61.6,29.61,ENE,64,3.0,4.0,92,0.00,,---,0.04,VWS V12.08,2013-11-02 15:26:00,
2013-11-02 11:27:00,64.2,61.8,29.61,ENE,64,2.0,4.0,92,0.00,,---,0.04,VWS V12.08,2013-11-02 15:27:00,
2013-11-02 11:28:00,64.3,61.9,29.62,ENE,64,2.0,4.0,92,0.00,,---,0.04,VWS V12.08,2013-11-02 15:28:00,
2013-11-02 11:29:00,64.3,61.6,29.62,ENE,64,3.0,4.0,91,0.00,,---,0.04,VWS V12.08,2013-11-02 15:29:00,
2013-11-02 11:30:00,64.2,61.5,29.62,ENE,64,2.0,4.0,91,0.00,,---,0.04,VWS V12.08,2013-11-02 15:30:00,
2013-11-02 11:31:00,64.3,61.6,29.62,ENE,64,4.0,4.0,91,0.00,,---,0.04,VWS V12.08,2013-11-02 15:31:00,
2013-11-02 11:32:00,64.3,61.6,29.62,ENE,64,2.0,4.0,91,0.00,,---,0.04,VWS V12.08,2013-11-02 15:32:00,
2013-11-02 11:33:00,64.3,61.6,29.62,ENE,64,2.0,4.0,91,0.00,,---,0.04,VWS V12.08,2013-11-02 15:33:00,
2013-11-02 11:34:00,64.4,61.7,29.62,ENE,64,2.0,4.0,91,0.00,,---,0.04,VWS V12.08,2013-11-02 15:34:00,
2013-11-02 11:36:00,64.5,61.8,29.62,ENE,64,2.0,4.0,91,0.00,,---,0.04,VWS V12.08,2013-11-02 15:36:00,
2013-11-02 11:37:00,64.5,61.5,29.62,ENE,63,2.0,4.0,90,0.00,,---,0.04,VWS V12.08,2013-11-02 15:37:00,
2013-11-02 11:39:00,64.6,61.9,29.62,ENE,64,1.0,4.0,91,0.00,,---,0.04,VWS V12.08,2013-11-02 15:39:00,
2013-11-02 11:41:00,64.8,62.1,29.62,ENE,64,0.0,0.0,91,0.00,,---,0.04,VWS V12.08,2013-11-02 15:41:00,
2013-11-02 11:42:00,64.9,62.2,29.62,ENE,64,1.0,1.0,91,0.00,,---,0.04,VWS V12.08,2013-11-02 15:42:00,
2013-11-02 11:44:00,65.3,62.9,29.62,ENE,64,2.0,2.0,92,0.00,,---,0.04,VWS V12.08,2013-11-02 15:44:00,
2013-11-02 11:45:00,65.5,63.1,29.62,ENE,64,2.0,3.0,92,0.00,,---,0.04,VWS V12.08,2013-11-02 15:45:00,
2013-11-02 11:46:00,65.7,63.0,29.62,ENE,64,2.0,3.0,91,0.00,,---,0.04,VWS V12.08,2013-11-02 15:46:00,
2013-11-02 11:47:00,65.7,63.0,29.62,ENE,64,3.0,3.0,91,0.00,,---,0.04,VWS V12.08,2013-11-02 15:47:00,
2013-11-02 11:48:00,65.9,63.5,29.62,ENE,64,0.0,4.0,92,0.00,,---,0.04,VWS V12.08,2013-11-02 15:48:00,
2013-11-02 11:50:00,66.2,63.5,29.62,ENE,64,2.0,4.0,91,0.00,,---,0.04,VWS V12.08,2013-11-02 15:50:00,
2013-11-02 11:51:00,66.2,63.2,29.62,ENE,64,0.0,1.0,90,0.00,,---,0.04,VWS V12.08,2013-11-02 15:51:00,
2013-11-02 11:52:00,66.3,63.3,29.62,ENE,64,2.0,2.0,90,0.00,,---,0.04,VWS V12.08,2013-11-02 15:52:00,
2013-11-02 11:55:00,66.5,63.5,29.62,ENE,64,1.0,3.0,90,0.00,,---,0.04,VWS V12.08,2013-11-02 15:55:00,
2013-11-02 11:56:00,66.7,63.7,29.62,ENE,64,2.0,4.0,90,0.00,,---,0.04,VWS V12.08,2013-11-02 15:56:00,
2013-11-02 11:57:00,66.7,63.4,29.63,ENE,64,3.0,4.0,89,0.00,,---,0.04,VWS V12.08,2013-11-02 15:57:00,
2013-11-02 12:00:00,66.7,63.0,29.63,ENE,64,3.0,4.0,88,0.00,,---,0.04,VWS V12.08,2013-11-02 16:00:00,
2013-11-02 12:01:00,66.5,62.8,29.62,ENE,64,2.0,3.0,88,0.00,,---,0.04,VWS V12.08,2013-11-02 16:01:00,
2013-11-02 12:02:00,66.5,62.8,29.62,ENE,64,2.0,3.0,88,0.00,,---,0.04,VWS V12.08,2013-11-02 16:02:00,
2013-11-02 12:03:00,66.4,62.7,29.62,ENE,64,2.0,3.0,88,0.00,,---,0.04,VWS V12.08,2013-11-02 16:03:00,
2013-11-02 12:05:00,66.1,62.1,29.62,ENE,64,2.0,3.0,87,0.00,,---,0.04,VWS V12.08,2013-11-02 16:05:00,
2013-11-02 12:06:00,66.1,62.1,29.62,ENE,64,2.0,3.0,87,0.00,,---,0.04,VWS V12.08,2013-11-02 16:06:00,
2013-11-02 12:07:00,66.1,62.1,29.62,ENE,64,1.0,3.0,87,0.00,,---,0.04,VWS V12.08,2013-11-02 16:07:00,
2013-11-02 12:08:00,66.0,62.3,29.62,ENE,64,0.0,3.0,88,0.00,,---,0.04,VWS V12.08,2013-11-02 16:08:00,
2013-11-02 12:11:00,65.8,62.2,29.62,ENE,64,2.0,3.0,88,0.00,,---,0.04,VWS V12.08,2013-11-02 16:11:00,
2013-11-02 12:12:00,65.7,61.7,29.62,ENE,64,2.0,2.0,87,0.00,,---,0.04,VWS V12.08,2013-11-02 16:12:00,
2013-11-02 12:13:00,65.7,61.7,29.62,ENE,64,2.0,2.0,87,0.00,,---,0.04,VWS V12.08,2013-11-02 16:13:00,
2013-11-02 12:16:00,65.5,61.5,29.62,ENE,64,0.0,2.0,87,0.00,,---,0.04,VWS V12.08,2013-11-02 16:16:00,
2013-11-02 12:17:00,65.4,61.4,29.62,ENE,64,1.0,2.0,87,0.00,,---,0.04,VWS V12.08,2013-11-02 16:17:00,
2013-11-02 12:18:00,65.4,61.4,29.62,ENE,64,0.0,2.0,87,0.00,,---,0.04,VWS V12.08,2013-11-02 16:18:00,
2013-11-02 12:21:00,65.3,61.3,29.62,ENE,64,0.0,0.0,87,0.00,,---,0.04,VWS V12.08,2013-11-02 16:21:00,
2013-11-02 12:22:00,65.2,61.2,29.62,ENE,64,0.0,0.0,87,0.00,,---,0.04,VWS V12.08,2013-11-02 16:22:00,
2013-11-02 12:23:00,65.2,61.2,29.62,ENE,64,0.0,0.0,87,0.00,,---,0.04,VWS V12.08,2013-11-02 16:23:00,
2013-11-02 12:24:00,65.2,61.2,29.62,ENE,64,0.0,0.0,87,0.00,,---,0.04,VWS V12.08,2013-11-02 16:24:00,
2013-11-02 12:26:00,65.2,61.6,29.62,ENE,64,1.0,2.0,88,0.00,,---,0.04,VWS V12.08,2013-11-02 16:26:00,
2013-11-02 12:27:00,65.3,61.7,29.62,ENE,64,2.0,2.0,88,0.00,,---,0.04,VWS V12.08,2013-11-02 16:27:00,
2013-11-02 12:28:00,65.4,61.8,29.62,ENE,64,2.0,3.0,88,0.00,,---,0.04,VWS V12.08,2013-11-02 16:28:00,
2013-11-02 12:29:00,65.5,61.9,29.62,ENE,64,2.0,3.0,88,0.00,,---,0.04,VWS V12.08,2013-11-02 16:29:00,
2013-11-02 12:31:00,65.8,62.2,29.62,ENE,64,1.0,1.0,88,0.00,,---,0.04,VWS V12.08,2013-11-02 16:31:00,
2013-11-02 12:32:00,65.8,62.2,29.62,ENE,64,1.0,1.0,88,0.00,,---,0.04,VWS V12.08,2013-11-02 16:32:00,
2013-11-02 12:33:00,65.8,62.2,29.61,ENE,64,1.0,2.0,88,0.00,,---,0.04,VWS V12.08,2013-11-02 16:33:00,
2013-11-02 12:34:00,65.9,62.2,29.61,ENE,64,1.0,2.0,88,0.00,,---,0.04,VWS V12.08,2013-11-02 16:34:00,
2013-11-02 12:37:00,66.0,62.3,29.62,ENE,64,0.0,2.0,88,0.00,,---,0.04,VWS V12.08,2013-11-02 16:37:00,
2013-11-02 12:38:00,66.1,62.5,29.62,ENE,64,0.0,2.0,88,0.00,,---,0.04,VWS V12.08,2013-11-02 16:38:00,
2013-11-02 12:39:00,66.1,62.5,29.61,ENE,64,0.0,2.0,88,0.00,,---,0.04,VWS V12.08,2013-11-02 16:39:00,
2013-11-02 12:42:00,66.5,62.8,29.61,ENE,64,0.0,1.0,88,0.00,,---,0.04,VWS V12.08,2013-11-02 16:42:00,
2013-11-02 12:43:00,66.5,62.8,29.61,ENE,64,1.0,1.0,88,0.00,,---,0.04,VWS V12.08,2013-11-02 16:43:00,
2013-11-02 12:44:00,66.5,62.8,29.61,ENE,64,1.0,2.0,88,0.00,,---,0.04,VWS V12.08,2013-11-02 16:44:00,
2013-11-02 12:47:00,66.4,62.4,29.61,ENE,64,0.0,2.0,87,0.00,,---,0.04,VWS V12.08,2013-11-02 16:47:00,
2013-11-02 12:48:00,66.4,62.4,29.61,ENE,64,0.0,2.0,87,0.00,,---,0.04,VWS V12.08,2013-11-02 16:48:00,
2013-11-02 12:49:00,66.3,62.0,29.61,ENE,64,0.0,2.0,86,0.00,,---,0.04,VWS V12.08,2013-11-02 16:49:00,
2013-11-02 12:52:00,66.1,61.8,29.61,ENE,64,2.0,2.0,86,0.00,,---,0.04,VWS V12.08,2013-11-02 16:52:00,
2013-11-02 12:53:00,66.1,61.8,29.61,ENE,64,2.0,3.0,86,0.00,,---,0.04,VWS V12.08,2013-11-02 16:53:00,
2013-11-02 12:54:00,66.1,61.8,29.61,ENE,64,2.0,3.0,86,0.00,,---,0.04,VWS V12.08,2013-11-02 16:54:00,
2013-11-02 12:57:00,66.5,62.5,29.60,ENE,64,4.0,4.0,87,0.00,,---,0.04,VWS V12.08,2013-11-02 16:57:00,
2013-11-02 12:58:00,66.5,62.5,29.60,ENE,64,3.0,4.0,87,0.00,,---,0.04,VWS V12.08,2013-11-02 16:58:00,
2013-11-02 12:59:00,66.7,63.0,29.60,ENE,64,3.0,4.0,88,0.00,,---,0.04,VWS V12.08,2013-11-02 16:59:00,
2013-11-02 13:03:00,66.8,62.8,29.60,ENE,64,4.0,4.0,87,0.00,,---,0.04,VWS V12.08,2013-11-02 17:03:00,
2013-11-02 13:04:00,66.9,62.9,29.60,ENE,65,4.0,5.0,87,0.00,,---,0.04,VWS V12.08,2013-11-02 17:04:00,
2013-11-02 13:08:00,67.1,63.1,29.60,ENE,74,3.0,5.0,87,0.00,,---,0.04,VWS V12.08,2013-11-02 17:08:00,
2013-11-02 13:09:00,67.0,62.7,29.60,ENE,74,3.0,5.0,86,0.00,,---,0.04,VWS V12.08,2013-11-02 17:09:00,
2013-11-02 13:10:00,67.0,62.7,29.60,ENE,74,2.0,5.0,86,0.00,,---,0.04,VWS V12.08,2013-11-02 17:10:00,
2013-11-02 13:13:00,66.7,62.0,29.60,ENE,75,2.0,3.0,85,0.00,,---,0.04,VWS V12.08,2013-11-02 17:13:00,
2013-11-02 13:14:00,66.7,62.0,29.60,ENE,76,2.0,3.0,85,0.00,,---,0.04,VWS V12.08,2013-11-02 17:14:00,
2013-11-02 13:15:00,66.7,62.4,29.60,ENE,76,2.0,3.0,86,0.00,,---,0.04,VWS V12.08,2013-11-02 17:15:00,
2013-11-02 13:18:00,66.5,61.9,29.59,ENE,76,4.0,4.0,85,0.00,,---,0.04,VWS V12.08,2013-11-02 17:18:00,
2013-11-02 13:19:00,66.6,62.3,29.60,ENE,76,4.0,4.0,86,0.00,,---,0.04,VWS V12.08,2013-11-02 17:19:00,
2013-11-02 13:20:00,66.6,62.3,29.60,ENE,76,4.0,4.0,86,0.00,,---,0.04,VWS V12.08,2013-11-02 17:20:00,
2013-11-02 13:23:00,66.4,61.8,29.60,East,86,4.0,5.0,85,0.00,,---,0.04,VWS V12.08,2013-11-02 17:23:00,
2013-11-02 13:24:00,66.3,62.0,29.60,East,87,5.0,5.0,86,0.00,,---,0.04,VWS V12.08,2013-11-02 17:24:00,
2013-11-02 13:25:00,66.4,62.1,29.60,East,91,4.0,5.0,86,0.00,,---,0.04,VWS V12.08,2013-11-02 17:25:00,
2013-11-02 13:28:00,66.3,62.0,29.59,SE,134,4.0,5.0,86,0.00,,---,0.04,VWS V12.08,2013-11-02 17:28:00,
2013-11-02 13:29:00,66.3,62.0,29.59,SE,134,4.0,5.0,86,0.00,,---,0.04,VWS V12.08,2013-11-02 17:29:00,
2013-11-02 13:30:00,66.3,62.0,29.59,SE,136,4.0,5.0,86,0.00,,---,0.04,VWS V12.08,2013-11-02 17:30:00,
2013-11-02 13:31:00,66.3,62.0,29.59,SE,136,5.0,5.0,86,0.00,,---,0.04,VWS V12.08,2013-11-02 17:31:00,
2013-11-02 13:33:00,66.2,61.9,29.60,SE,137,3.0,5.0,86,0.00,,---,0.04,VWS V12.08,2013-11-02 17:33:00,
2013-11-02 13:34:00,66.2,61.9,29.60,SE,137,3.0,5.0,86,0.00,,---,0.04,VWS V12.08,2013-11-02 17:34:00,
2013-11-02 13:35:00,66.2,61.9,29.60,SE,140,3.0,5.0,86,0.00,,---,0.04,VWS V12.08,2013-11-02 17:35:00,
2013-11-02 13:36:00,66.1,61.5,29.60,SE,140,3.0,5.0,85,0.00,,---,0.04,VWS V12.08,2013-11-02 17:36:00,
2013-11-02 13:39:00,65.8,61.2,29.60,SE,144,3.0,5.0,85,0.00,,---,0.04,VWS V12.08,2013-11-02 17:39:00,
2013-11-02 13:40:00,65.8,61.5,29.60,SE,144,4.0,5.0,86,0.00,,---,0.04,VWS V12.08,2013-11-02 17:40:00,
2013-11-02 13:41:00,65.7,61.4,29.60,SE,144,4.0,5.0,86,0.00,,---,0.04,VWS V12.08,2013-11-02 17:41:00,
2013-11-02 13:44:00,65.6,61.3,29.60,SSE,158,4.0,5.0,86,0.00,,---,0.04,VWS V12.08,2013-11-02 17:44:00,
2013-11-02 13:45:00,65.6,61.3,29.60,SSE,158,4.0,5.0,86,0.00,,---,0.04,VWS V12.08,2013-11-02 17:45:00,
2013-11-02 13:46:00,65.5,61.2,29.60,SSE,158,5.0,5.0,86,0.00,,---,0.04,VWS V12.08,2013-11-02 17:46:00,
2013-11-02 13:49:00,65.4,61.1,29.60,SSE,158,5.0,5.0,86,0.00,,---,0.04,VWS V12.08,2013-11-02 17:49:00,
2013-11-02 13:50:00,65.3,61.0,29.60,SSE,158,3.0,5.0,86,0.00,,---,0.04,VWS V12.08,2013-11-02 17:50:00,
2013-11-02 13:52:00,65.3,61.0,29.60,SSE,158,3.0,3.0,86,0.00,,---,0.04,VWS V12.08,2013-11-02 17:52:00,
2013-11-02 13:54:00,65.2,60.9,29.59,SSE,158,3.0,5.0,86,0.00,,---,0.04,VWS V12.08,2013-11-02 17:54:00,
2013-11-02 13:56:00,65.1,60.8,29.59,SSE,159,5.0,5.0,86,0.00,,---,0.04,VWS V12.08,2013-11-02 17:56:00,
2013-11-02 13:57:00,65.0,61.0,29.59,SSE,159,5.0,5.0,87,0.00,,---,0.04,VWS V12.08,2013-11-02 17:57:00,
2013-11-02 13:59:00,64.8,60.5,29.60,SSE,159,4.0,6.0,86,0.00,,---,0.04,VWS V12.08,2013-11-02 17:59:00,
2013-11-02 14:00:00,64.8,60.5,29.60,SSE,159,4.0,6.0,86,0.00,,---,0.04,VWS V12.08,2013-11-02 18:00:00,
2013-11-02 14:01:00,64.7,60.4,29.60,SSE,159,3.0,3.0,86,0.00,,---,0.04,VWS V12.08,2013-11-02 18:01:00,
2013-11-02 14:02:00,64.7,60.4,29.59,SSE,159,4.0,4.0,86,0.00,,---,0.04,VWS V12.08,2013-11-02 18:02:00,
2013-11-02 14:04:00,64.7,60.8,29.59,SSE,159,3.0,4.0,87,0.00,,---,0.04,VWS V12.08,2013-11-02 18:04:00,
2013-11-02 14:05:00,64.7,60.8,29.59,SSE,159,2.0,4.0,87,0.00,,---,0.04,VWS V12.08,2013-11-02 18:05:00,
2013-11-02 14:06:00,64.9,60.9,29.59,SSE,159,3.0,4.0,87,0.00,,---,0.04,VWS V12.08,2013-11-02 18:06:00,
2013-11-02 14:07:00,65.0,61.4,29.59,SSE,159,3.0,4.0,88,0.00,,---,0.04,VWS V12.08,2013-11-02 18:07:00,
2013-11-02 14:10:00,65.2,61.6,29.59,SSE,159,1.0,4.0,88,0.00,,---,0.04,VWS V12.08,2013-11-02 18:10:00,
2013-11-02 14:11:00,65.2,61.2,29.59,SSE,159,1.0,2.0,87,0.00,,---,0.04,VWS V12.08,2013-11-02 18:11:00,
2013-11-02 14:12:00,65.3,61.3,29.59,SSE,159,2.0,2.0,87,0.00,,---,0.04,VWS V12.08,2013-11-02 18:12:00,
2013-11-02 14:15:00,65.5,61.9,29.59,SSE,159,2.0,3.0,88,0.00,,---,0.04,VWS V12.08,2013-11-02 18:15:00,
2013-11-02 14:16:00,65.6,62.0,29.59,SSE,159,1.0,3.0,88,0.00,,---,0.04,VWS V12.08,2013-11-02 18:16:00,
2013-11-02 14:18:00,65.8,62.2,29.59,SSE,159,3.0,3.0,88,0.00,,---,0.04,VWS V12.08,2013-11-02 18:18:00,
2013-11-02 14:20:00,66.0,62.3,29.59,SSE,159,4.0,5.0,88,0.00,,---,0.04,VWS V12.08,2013-11-02 18:20:00,
2013-11-02 14:22:00,66.1,62.1,29.60,SSE,159,5.0,5.0,87,0.00,,---,0.04,VWS V12.08,2013-11-02 18:22:00,
2013-11-02 14:23:00,66.1,62.1,29.60,SSE,160,4.0,5.0,87,0.00,,---,0.04,VWS V12.08,2013-11-02 18:23:00,
2013-11-02 14:25:00,66.0,61.7,29.60,South,182,4.0,6.0,86,0.00,,---,0.04,VWS V12.08,2013-11-02 18:25:00,
2013-11-02 14:27:00,66.0,61.7,29.60,South,188,5.0,6.0,86,0.00,,---,0.04,VWS V12.08,2013-11-02 18:27:00,
2013-11-02 14:28:00,66.0,62.0,29.60,SSW,196,5.0,6.0,87,0.00,,---,0.04,VWS V12.08,2013-11-02 18:28:00,
2013-11-02 14:30:00,66.1,62.1,29.60,SSW,208,5.0,10.0,87,0.00,,---,0.04,VWS V12.08,2013-11-02 18:30:00,
2013-11-02 14:31:00,66.1,62.1,29.60,SSW,209,7.0,10.0,87,0.00,,---,0.04,VWS V12.08,2013-11-02 18:31:00,
2013-11-02 14:32:00,66.2,61.9,29.60,SSW,213,7.0,10.0,86,0.00,,---,0.04,VWS V12.08,2013-11-02 18:32:00,
2013-11-02 14:33:00,66.1,61.8,29.60,SSW,208,8.0,10.0,86,0.00,,---,0.04,VWS V12.08,2013-11-02 18:33:00,
2013-11-02 14:35:00,65.9,60.9,29.60,SSW,200,8.0,10.0,84,0.00,,---,0.04,VWS V12.08,2013-11-02 18:35:00,
2013-11-02 14:36:00,65.9,60.9,29.60,SSW,200,8.0,10.0,84,0.00,,---,0.04,VWS V12.08,2013-11-02 18:36:00,
2013-11-02 14:37:00,65.8,61.2,29.60,SSW,197,8.0,10.0,85,0.00,,---,0.04,VWS V12.08,2013-11-02 18:37:00,
2013-11-02 14:38:00,65.9,61.3,29.60,SSW,197,9.0,10.0,85,0.00,,---,0.04,VWS V12.08,2013-11-02 18:38:00,
2013-11-02 14:41:00,65.8,60.8,29.60,SSW,195,5.0,11.0,84,0.00,,---,0.04,VWS V12.08,2013-11-02 18:41:00,
2013-11-02 14:42:00,65.7,60.7,29.60,SSW,196,6.0,7.0,84,0.00,,---,0.04,VWS V12.08,2013-11-02 18:42:00,
2013-11-02 14:43:00,65.6,60.6,29.60,SSW,196,6.0,7.0,84,0.00,,---,0.04,VWS V12.08,2013-11-02 18:43:00,
2013-11-02 14:46:00,65.5,60.5,29.60,SSW,196,5.0,11.0,84,0.00,,---,0.04,VWS V12.08,2013-11-02 18:46:00,
2013-11-02 14:47:00,65.4,60.5,29.60,South,191,10.0,11.0,84,0.00,,---,0.04,VWS V12.08,2013-11-02 18:47:00,
2013-11-02 14:48:00,65.3,60.3,29.60,SSW,195,11.0,11.0,84,0.00,,---,0.04,VWS V12.08,2013-11-02 18:48:00,
2013-11-02 14:49:00,65.2,60.2,29.60,SSW,195,10.0,11.0,84,0.00,,---,0.04,VWS V12.08,2013-11-02 18:49:00,
2013-11-02 14:51:00,65.1,60.2,29.60,South,188,11.0,12.0,84,0.00,,---,0.04,VWS V12.08,2013-11-02 18:51:00,
2013-11-02 14:53:00,65.2,60.6,29.60,South,186,8.0,13.0,85,0.00,,---,0.04,VWS V12.08,2013-11-02 18:53:00,
2013-11-02 14:54:00,65.4,60.8,29.60,South,180,10.0,13.0,85,0.00,,---,0.04,VWS V12.08,2013-11-02 18:54:00,
2013-11-02 14:56:00,65.7,61.4,29.60,South,178,11.0,13.0,86,0.00,,---,0.04,VWS V12.08,2013-11-02 18:56:00,
2013-11-02 14:57:00,65.8,61.5,29.60,South,178,10.0,13.0,86,0.00,,---,0.04,VWS V12.08,2013-11-02 18:57:00,
2013-11-02 14:58:00,65.9,61.3,29.60,South,173,10.0,13.0,85,0.00,,---,0.04,VWS V12.08,2013-11-02 18:58:00,
2013-11-02 14:59:00,66.1,61.8,29.60,South,175,10.0,13.0,86,0.00,,---,0.04,VWS V12.08,2013-11-02 18:59:00,
2013-11-02 15:01:00,66.3,62.0,29.60,South,173,10.0,13.0,86,0.00,,---,0.04,VWS V12.08,2013-11-02 19:01:00,
2013-11-02 15:02:00,66.3,61.7,29.60,South,181,11.0,12.0,85,0.00,,---,0.04,VWS V12.08,2013-11-02 19:02:00,
2013-11-02 15:03:00,66.3,61.3,29.60,South,180,9.0,12.0,84,0.00,,---,0.04,VWS V12.08,2013-11-02 19:03:00,
2013-11-02 15:04:00,66.2,61.2,29.60,South,180,11.0,12.0,84,0.00,,---,0.04,VWS V12.08,2013-11-02 19:04:00,
2013-11-02 15:06:00,66.0,60.7,29.60,South,180,6.0,12.0,83,0.00,,---,0.04,VWS V12.08,2013-11-02 19:06:00,
2013-11-02 15:07:00,66.0,60.7,29.60,South,180,9.0,12.0,83,0.00,,---,0.04,VWS V12.08,2013-11-02 19:07:00,
2013-11-02 15:08:00,66.0,60.7,29.60,South,180,3.0,12.0,83,0.00,,---,0.04,VWS V12.08,2013-11-02 19:08:00,
2013-11-02 15:09:00,66.1,61.1,29.60,South,180,9.0,12.0,84,0.00,,---,0.04,VWS V12.08,2013-11-02 19:09:00,
2013-11-02 15:10:00,66.2,61.2,29.60,South,181,9.0,12.0,84,0.00,,---,0.04,VWS V12.08,2013-11-02 19:10:00,
2013-11-02 15:11:00,66.2,61.2,29.60,South,182,9.0,9.0,84,0.00,,---,0.04,VWS V12.08,2013-11-02 19:11:00,
2013-11-02 15:12:00,66.3,61.3,29.60,South,181,8.0,11.0,84,0.00,,---,0.04,VWS V12.08,2013-11-02 19:12:00,
2013-11-02 15:13:00,66.4,61.1,29.59,South,171,13.0,14.0,83,0.00,,---,0.04,VWS V12.08,2013-11-02 19:13:00,
2013-11-02 15:15:00,66.6,61.3,29.59,South,178,8.0,14.0,83,0.00,,---,0.04,VWS V12.08,2013-11-02 19:15:00,
2013-11-02 15:16:00,66.7,61.0,29.60,South,178,4.0,14.0,82,0.00,,---,0.04,VWS V12.08,2013-11-02 19:16:00,
2013-11-02 15:17:00,66.8,61.1,29.60,South,182,8.0,14.0,82,0.00,,---,0.04,VWS V12.08,2013-11-02 19:17:00,
2013-11-02 15:18:00,67.1,61.1,29.59,SSW,192,2.0,14.0,81,0.00,,---,0.04,VWS V12.08,2013-11-02 19:18:00,
2013-11-02 15:20:00,67.2,61.5,29.59,SW,216,5.0,14.0,82,0.00,,---,0.04,VWS V12.08,2013-11-02 19:20:00,
2013-11-02 15:21:00,67.3,61.3,29.59,NW,320,12.0,12.0,81,0.00,,---,0.04,VWS V12.08,2013-11-02 19:21:00,
2013-11-02 15:22:00,67.3,60.9,29.59,NW,308,11.0,12.0,80,0.00,,---,0.04,VWS V12.08,2013-11-02 19:22:00,
2013-11-02 15:23:00,67.0,59.6,29.59,NW,307,13.0,16.0,77,0.00,,---,0.04,VWS V12.08,2013-11-02 19:23:00,
2013-11-02 15:25:00,67.0,59.6,29.59,NW,310,3.0,16.0,77,0.00,,---,0.04,VWS V12.08,2013-11-02 19:25:00,
2013-11-02 15:26:00,67.0,59.2,29.59,NW,315,6.0,16.0,76,0.00,,---,0.04,VWS V12.08,2013-11-02 19:26:00,
2013-11-02 15:27:00,67.1,59.3,29.59,NW,309,8.0,16.0,76,0.00,,---,0.04,VWS V12.08,2013-11-02 19:27:00,
2013-11-02 15:29:00,67.2,58.6,29.59,NW,323,12.0,16.0,74,0.00,,---,0.04,VWS V12.08,2013-11-02 19:29:00,
2013-11-02 15:30:00,67.1,58.2,29.59,NW,311,11.0,16.0,73,0.00,,---,0.04,VWS V12.08,2013-11-02 19:30:00,
2013-11-02 15:31:00,67.1,58.2,29.58,NW,314,9.0,9.0,73,0.00,,---,0.04,VWS V12.08,2013-11-02 19:31:00,
2013-11-02 15:32:00,67.1,58.2,29.58,NW,317,5.0,10.0,73,0.00,,---,0.04,VWS V12.08,2013-11-02 19:32:00,
2013-11-02 15:34:00,67.2,58.6,29.58,NW,319,12.0,12.0,74,0.00,,---,0.04,VWS V12.08,2013-11-02 19:34:00,
2013-11-02 15:35:00,67.2,58.6,29.58,NW,321,13.0,13.0,74,0.00,,---,0.04,VWS V12.08,2013-11-02 19:35:00,
2013-11-02 15:36:00,67.4,58.5,29.58,NNW,331,10.0,13.0,73,0.00,,---,0.04,VWS V12.08,2013-11-02 19:36:00,
2013-11-02 15:37:00,67.5,58.2,29.58,NW,313,9.0,13.0,72,0.00,,---,0.04,VWS V12.08,2013-11-02 19:37:00,
2013-11-02 15:39:00,67.6,57.5,29.58,NNW,333,3.0,13.0,70,0.00,,---,0.04,VWS V12.08,2013-11-02 19:39:00,
2013-11-02 15:40:00,67.8,57.7,29.58,NNW,333,1.0,13.0,70,0.00,,---,0.04,VWS V12.08,2013-11-02 19:40:00,
2013-11-02 15:41:00,68.0,57.9,29.58,NNW,347,9.0,12.0,70,0.00,,---,0.04,VWS V12.08,2013-11-02 19:41:00,
2013-11-02 15:42:00,68.3,58.2,29.58,NNW,332,10.0,12.0,70,0.00,,---,0.04,VWS V12.08,2013-11-02 19:42:00,
2013-11-02 15:43:00,68.3,58.2,29.58,NW,321,11.0,12.0,70,0.00,,---,0.04,VWS V12.08,2013-11-02 19:43:00,
2013-11-02 15:44:00,68.5,57.5,29.58,NNW,328,8.0,12.0,68,0.00,,---,0.04,VWS V12.08,2013-11-02 19:44:00,
2013-11-02 15:45:00,68.6,57.2,29.58,WNW,294,10.0,12.0,67,0.00,,---,0.04,VWS V12.08,2013-11-02 19:45:00,
2013-11-02 15:46:00,68.6,56.8,29.58,WNW,298,7.0,12.0,66,0.00,,---,0.04,VWS V12.08,2013-11-02 19:46:00,
2013-11-02 15:48:00,68.8,57.0,29.58,WNW,300,5.0,12.0,66,0.00,,---,0.04,VWS V12.08,2013-11-02 19:48:00,
2013-11-02 15:49:00,68.9,57.1,29.58,WNW,300,6.0,12.0,66,0.00,,---,0.04,VWS V12.08,2013-11-02 19:49:00,
2013-11-02 15:50:00,68.9,56.2,29.58,WNW,302,11.0,12.0,64,0.00,,---,0.04,VWS V12.08,2013-11-02 19:50:00,
2013-11-02 15:51:00,69.0,56.3,29.58,WNW,297,10.0,12.0,64,0.00,,---,0.04,VWS V12.08,2013-11-02 19:51:00,
2013-11-02 15:53:00,69.2,55.6,29.58,NNW,342,10.0,13.0,62,0.00,,---,0.04,VWS V12.08,2013-11-02 19:53:00,
2013-11-02 15:54:00,69.2,55.6,29.58,NNW,327,13.0,13.0,62,0.00,,---,0.04,VWS V12.08,2013-11-02 19:54:00,
2013-11-02 15:55:00,69.3,54.4,29.58,NNW,333,7.0,13.0,59,0.00,,---,0.04,VWS V12.08,2013-11-02 19:55:00,
2013-11-02 15:56:00,69.3,54.4,29.57,NNW,333,5.0,13.0,59,0.00,,---,0.04,VWS V12.08,2013-11-02 19:56:00,
2013-11-02 15:58:00,69.3,53.9,29.58,NNW,329,13.0,13.0,58,0.00,,---,0.04,VWS V12.08,2013-11-02 19:58:00,
2013-11-02 15:59:00,69.3,53.9,29.58,NW,316,10.0,13.0,58,0.00,,---,0.04,VWS V12.08,2013-11-02 19:59:00,
2013-11-02 16:01:00,69.4,54.0,29.58,NW,326,6.0,13.0,58,0.00,,---,0.04,VWS V12.08,2013-11-02 20:01:00,
2013-11-02 16:02:00,69.5,53.6,29.58,NW,319,8.0,9.0,57,0.00,,---,0.04,VWS V12.08,2013-11-02 20:02:00,
2013-11-02 16:04:00,69.5,53.1,29.58,WNW,303,11.0,13.0,56,0.00,,---,0.04,VWS V12.08,2013-11-02 20:04:00,
2013-11-02 16:05:00,69.4,52.0,29.59,NW,316,7.0,13.0,54,0.00,,---,0.04,VWS V12.08,2013-11-02 20:05:00,
2013-11-02 16:06:00,69.4,52.0,29.59,NW,316,5.0,13.0,54,0.00,,---,0.04,VWS V12.08,2013-11-02 20:06:00,
2013-11-02 16:07:00,69.3,52.0,29.59,NNW,327,13.0,13.0,54,0.00,,---,0.04,VWS V12.08,2013-11-02 20:07:00,
2013-11-02 16:09:00,69.1,51.8,29.59,NW,325,12.0,17.0,54,0.00,,---,0.04,VWS V12.08,2013-11-02 20:09:00,
2013-11-02 16:11:00,68.8,51.5,29.59,NW,322,5.0,17.0,54,0.00,,---,0.04,VWS V12.08,2013-11-02 20:11:00,
2013-11-02 16:12:00,68.7,51.9,29.58,NW,315,10.0,14.0,55,0.00,,---,0.04,VWS V12.08,2013-11-02 20:12:00,
2013-11-02 16:14:00,68.5,51.7,29.58,WNW,294,9.0,14.0,55,0.00,,---,0.04,VWS V12.08,2013-11-02 20:14:00,
2013-11-02 16:16:00,68.3,51.0,29.58,NW,310,7.0,15.0,54,0.00,,---,0.04,VWS V12.08,2013-11-02 20:16:00,
2013-11-02 16:17:00,68.2,50.9,29.59,WNW,303,12.0,17.0,54,0.00,,---,0.04,VWS V12.08,2013-11-02 20:17:00,
2013-11-02 16:19:00,68.1,50.3,29.58,WNW,288,13.0,18.0,53,0.00,,---,0.04,VWS V12.08,2013-11-02 20:19:00,
2013-11-02 16:21:00,67.9,50.2,29.58,NW,306,12.0,12.0,53,0.00,,---,0.04,VWS V12.08,2013-11-02 20:21:00,
2013-11-02 16:22:00,67.8,50.1,29.58,WNW,300,7.0,14.0,53,0.00,,---,0.04,VWS V12.08,2013-11-02 20:22:00,
2013-11-02 16:23:00,67.7,50.0,29.58,NW,309,15.0,18.0,53,0.00,,---,0.04,VWS V12.08,2013-11-02 20:23:00,
2013-11-02 16:24:00,67.6,49.9,29.59,NW,304,13.0,18.0,53,0.00,,---,0.04,VWS V12.08,2013-11-02 20:24:00,
2013-11-02 16:26:00,67.5,49.8,29.59,WNW,301,14.0,18.0,53,0.00,,---,0.04,VWS V12.08,2013-11-02 20:26:00,
2013-11-02 16:27:00,67.4,49.7,29.59,NW,310,7.0,18.0,53,0.00,,---,0.04,VWS V12.08,2013-11-02 20:27:00,
2013-11-02 16:28:00,67.4,50.2,29.59,NW,319,6.0,18.0,54,0.00,,---,0.04,VWS V12.08,2013-11-02 20:28:00,
2013-11-02 16:29:00,67.4,50.2,29.59,NW,317,9.0,18.0,54,0.00,,---,0.04,VWS V12.08,2013-11-02 20:29:00,
2013-11-02 16:31:00,67.3,50.6,29.59,WNW,292,8.0,14.0,55,0.00,,---,0.04,VWS V12.08,2013-11-02 20:31:00,
2013-11-02 16:32:00,67.3,50.6,29.59,NW,320,8.0,17.0,55,0.00,,---,0.04,VWS V12.08,2013-11-02 20:32:00,
2013-11-02 16:33:00,67.3,50.6,29.59,West,279,11.0,17.0,55,0.00,,---,0.04,VWS V12.08,2013-11-02 20:33:00,
2013-11-02 16:34:00,67.2,50.5,29.59,WNW,293,11.0,17.0,55,0.00,,---,0.04,VWS V12.08,2013-11-02 20:34:00,
2013-11-02 16:36:00,67.1,50.4,29.59,NW,325,10.0,17.0,55,0.00,,---,0.04,VWS V12.08,2013-11-02 20:36:00,
2013-11-02 16:37:00,67.1,50.4,29.59,NNW,335,13.0,17.0,55,0.00,,---,0.04,VWS V12.08,2013-11-02 20:37:00,
2013-11-02 16:38:00,67.0,50.8,29.59,NW,315,4.0,17.0,56,0.00,,---,0.04,VWS V12.08,2013-11-02 20:38:00,
2013-11-02 16:39:00,67.0,50.8,29.59,WNW,302,10.0,17.0,56,0.00,,---,0.04,VWS V12.08,2013-11-02 20:39:00,
2013-11-02 16:41:00,66.9,50.7,29.59,NW,316,10.0,12.0,56,0.00,,---,0.04,VWS V12.08,2013-11-02 20:41:00,
2013-11-02 16:42:00,66.9,50.7,29.59,WNW,294,11.0,13.0,56,0.00,,---,0.04,VWS V12.08,2013-11-02 20:42:00,
2013-11-02 16:43:00,66.8,50.1,29.60,NW,305,12.0,16.0,55,0.00,,---,0.04,VWS V12.08,2013-11-02 20:43:00,
2013-11-02 16:44:00,66.8,50.1,29.60,WNW,295,9.0,16.0,55,0.00,,---,0.04,VWS V12.08,2013-11-02 20:44:00,
2013-11-02 16:45:00,66.7,50.0,29.60,WNW,303,11.0,16.0,55,0.00,,---,0.04,VWS V12.08,2013-11-02 20:45:00,
2013-11-02 16:47:00,66.7,50.0,29.60,NW,309,8.0,16.0,55,0.00,,---,0.04,VWS V12.08,2013-11-02 20:47:00,
2013-11-02 16:48:00,66.6,50.0,29.59,NW,323,10.0,16.0,55,0.00,,---,0.04,VWS V12.08,2013-11-02 20:48:00,
2013-11-02 16:49:00,66.6,50.0,29.59,NW,317,9.0,16.0,55,0.00,,---,0.04,VWS V12.08,2013-11-02 20:49:00,
2013-11-02 16:50:00,66.5,49.8,29.59,NW,317,7.0,16.0,55,0.00,,---,0.04,VWS V12.08,2013-11-02 20:50:00,
2013-11-02 16:52:00,66.5,50.3,29.59,NW,319,5.0,11.0,56,0.00,,---,0.04,VWS V12.08,2013-11-02 20:52:00,
2013-11-02 16:54:00,66.4,50.7,29.60,NW,325,8.0,11.0,57,0.00,,---,0.04,VWS V12.08,2013-11-02 20:54:00,
2013-11-02 16:55:00,66.3,50.6,29.60,NW,323,10.0,11.0,57,0.00,,---,0.04,VWS V12.08,2013-11-02 20:55:00,
2013-11-02 16:57:00,66.3,51.1,29.60,NW,318,7.0,11.0,58,0.00,,---,0.04,VWS V12.08,2013-11-02 20:57:00,
2013-11-02 16:59:00,66.2,51.0,29.60,NW,316,5.0,11.0,58,0.00,,---,0.04,VWS V12.08,2013-11-02 20:59:00,
2013-11-02 17:00:00,66.2,51.0,29.60,WNW,303,8.0,11.0,58,0.00,,---,0.04,VWS V12.08,2013-11-02 21:00:00,
2013-11-02 17:02:00,66.1,50.9,29.60,NW,323,8.0,10.0,58,0.00,,---,0.04,VWS V12.08,2013-11-02 21:02:00,
2013-11-02 17:03:00,66.1,50.9,29.60,NW,323,5.0,10.0,58,0.00,,---,0.04,VWS V12.08,2013-11-02 21:03:00,
2013-11-02 17:04:00,66.0,50.3,29.60,NW,313,9.0,12.0,57,0.00,,---,0.04,VWS V12.08,2013-11-02 21:04:00,
2013-11-02 17:05:00,66.0,50.3,29.60,WNW,298,9.0,12.0,57,0.00,,---,0.04,VWS V12.08,2013-11-02 21:05:00,
2013-11-02 17:07:00,65.9,50.2,29.61,NW,311,10.0,12.0,57,0.00,,---,0.04,VWS V12.08,2013-11-02 21:07:00,
2013-11-02 17:08:00,65.9,50.2,29.61,NW,310,9.0,12.0,57,0.00,,---,0.04,VWS V12.08,2013-11-02 21:08:00,
2013-11-02 17:09:00,65.9,50.2,29.61,NW,313,7.0,12.0,57,0.00,,---,0.04,VWS V12.08,2013-11-02 21:09:00,
2013-11-02 17:10:00,65.9,50.2,29.61,NW,315,9.0,12.0,57,0.00,,---,0.04,VWS V12.08,2013-11-02 21:10:00,
2013-11-02 17:12:00,65.9,50.2,29.61,NW,318,7.0,12.0,57,0.00,,---,0.04,VWS V12.08,2013-11-02 21:12:00,
2013-11-02 17:13:00,65.9,50.2,29.61,WNW,284,11.0,12.0,57,0.00,,---,0.04,VWS V12.08,2013-11-02 21:13:00,
2013-11-02 17:15:00,65.9,50.2,29.61,NNW,331,11.0,17.0,57,0.00,,---,0.04,VWS V12.08,2013-11-02 21:15:00,
2013-11-02 17:16:00,65.9,50.2,29.61,NW,307,6.0,17.0,57,0.00,,---,0.04,VWS V12.08,2013-11-02 21:16:00,
2013-11-02 17:18:00,65.8,49.7,29.61,NNW,328,9.0,17.0,56,0.00,,---,0.04,VWS V12.08,2013-11-02 21:18:00,
2013-11-02 17:20:00,65.8,49.7,29.61,WNW,300,6.0,17.0,56,0.00,,---,0.04,VWS V12.08,2013-11-02 21:20:00,
2013-11-02 17:21:00,65.8,50.2,29.62,NW,321,6.0,7.0,57,0.00,,---,0.04,VWS V12.08,2013-11-02 21:21:00,
2013-11-02 17:23:00,65.7,50.5,29.62,WNW,294,9.0,11.0,58,0.00,,---,0.04,VWS V12.08,2013-11-02 21:23:00,
2013-11-02 17:24:00,65.7,50.5,29.62,NW,306,5.0,11.0,58,0.00,,---,0.04,VWS V12.08,2013-11-02 21:24:00,
2013-11-02 17:25:00,65.6,50.4,29.62,WNW,302,10.0,11.0,58,0.00,,---,0.04,VWS V12.08,2013-11-02 21:25:00,
2013-11-02 17:26:00,65.6,50.4,29.62,WNW,302,5.0,11.0,58,0.00,,---,0.04,VWS V12.08,2013-11-02 21:26:00,
2013-11-02 17:28:00,65.5,50.3,29.61,NW,307,7.0,11.0,58,0.00,,---,0.04,VWS V12.08,2013-11-02 21:28:00,
2013-11-02 17:29:00,65.4,50.2,29.61,NW,312,6.0,11.0,58,0.00,,---,0.04,VWS V12.08,2013-11-02 21:29:00,
2013-11-02 17:30:00,65.4,50.2,29.61,WNW,291,6.0,12.0,58,0.00,,---,0.04,VWS V12.08,2013-11-02 21:30:00,
2013-11-02 17:31:00,65.4,50.2,29.61,NW,311,4.0,6.0,58,0.00,,---,0.04,VWS V12.08,2013-11-02 21:31:00,
2013-11-02 17:33:00,65.3,50.2,29.62,WNW,301,9.0,14.0,58,0.00,,---,0.04,VWS V12.08,2013-11-02 21:33:00,
2013-11-02 17:34:00,65.3,50.2,29.62,NW,326,7.0,14.0,58,0.00,,---,0.04,VWS V12.08,2013-11-02 21:34:00,
2013-11-02 17:35:00,65.2,50.5,29.62,NW,325,5.0,14.0,59,0.00,,---,0.04,VWS V12.08,2013-11-02 21:35:00,
2013-11-02 17:36:00,65.2,50.5,29.62,NW,321,5.0,14.0,59,0.00,,---,0.04,VWS V12.08,2013-11-02 21:36:00,
2013-11-02 17:38:00,65.1,50.4,29.61,WNW,290,9.0,14.0,59,0.00,,---,0.04,VWS V12.08,2013-11-02 21:38:00,
2013-11-02 17:39:00,65.1,50.0,29.62,NW,309,12.0,14.0,58,0.00,,---,0.04,VWS V12.08,2013-11-02 21:39:00,
2013-11-02 17:40:00,65.1,50.0,29.62,WNW,302,6.0,14.0,58,0.00,,---,0.04,VWS V12.08,2013-11-02 21:40:00,
2013-11-02 17:42:00,65.0,50.3,29.62,WNW,298,8.0,13.0,59,0.00,,---,0.04,VWS V12.08,2013-11-02 21:42:00,
2013-11-02 17:44:00,65.0,50.3,29.62,NW,313,8.0,13.0,59,0.00,,---,0.04,VWS V12.08,2013-11-02 21:44:00,
2013-11-02 17:45:00,64.9,50.2,29.62,NW,307,6.0,13.0,59,0.00,,---,0.04,VWS V12.08,2013-11-02 21:45:00,
2013-11-02 17:46:00,64.9,50.2,29.62,NW,313,6.0,13.0,59,0.00,,---,0.04,VWS V12.08,2013-11-02 21:46:00,
2013-11-02 17:47:00,64.9,50.2,29.62,WNW,293,11.0,13.0,59,0.00,,---,0.04,VWS V12.08,2013-11-02 21:47:00,
2013-11-02 17:49:00,64.8,50.6,29.62,NW,316,6.0,13.0,60,0.00,,---,0.04,VWS V12.08,2013-11-02 21:49:00,
2013-11-02 17:50:00,64.7,50.5,29.62,WNW,302,10.0,16.0,60,0.00,,---,0.04,VWS V12.08,2013-11-02 21:50:00,
2013-11-02 17:51:00,64.7,50.5,29.62,NW,326,6.0,10.0,60,0.00,,---,0.04,VWS V12.08,2013-11-02 21:51:00,
2013-11-02 17:52:00,64.6,50.4,29.62,NW,323,8.0,11.0,60,0.00,,---,0.04,VWS V12.08,2013-11-02 21:52:00,
2013-11-02 17:54:00,64.5,50.3,29.63,NNW,335,10.0,14.0,60,0.00,,---,0.04,VWS V12.08,2013-11-02 21:54:00,
2013-11-02 17:55:00,64.5,50.8,29.63,NNW,327,6.0,14.0,61,0.00,,---,0.04,VWS V12.08,2013-11-02 21:55:00,
2013-11-02 17:56:00,64.5,50.8,29.63,NNW,327,7.0,14.0,61,0.00,,---,0.04,VWS V12.08,2013-11-02 21:56:00,
2013-11-02 17:57:00,64.4,50.7,29.63,NNW,335,7.0,14.0,61,0.00,,---,0.04,VWS V12.08,2013-11-02 21:57:00,
2013-11-02 17:59:00,64.3,50.6,29.63,NNW,335,7.0,14.0,61,0.00,,---,0.04,VWS V12.08,2013-11-02 21:59:00,
2013-11-02 18:00:00,64.3,50.6,29.63,NW,321,5.0,14.0,61,0.00,,---,0.04,VWS V12.08,2013-11-02 22:00:00,
2013-11-02 18:01:00,64.2,50.5,29.63,NW,325,10.0,14.0,61,0.00,,---,0.04,VWS V12.08,2013-11-02 22:01:00,
2013-11-02 18:02:00,64.2,50.9,29.64,NW,326,5.0,10.0,62,0.00,,---,0.04,VWS V12.08,2013-11-02 22:02:00,
2013-11-02 18:04:00,64.1,50.8,29.64,NNW,328,4.0,10.0,62,0.00,,---,0.04,VWS V12.08,2013-11-02 22:04:00,
2013-11-02 18:05:00,64.0,50.7,29.64,NNW,329,3.0,10.0,62,0.00,,---,0.04,VWS V12.08,2013-11-02 22:05:00,
2013-11-02 18:06:00,64.0,51.2,29.64,NNW,329,5.0,10.0,63,0.00,,---,0.04,VWS V12.08,2013-11-02 22:06:00,
2013-11-02 18:07:00,63.9,51.1,29.64,NNW,328,5.0,10.0,63,0.00,,---,0.04,VWS V12.08,2013-11-02 22:07:00,
2013-11-02 18:09:00,63.8,51.0,29.64,NNW,336,8.0,10.0,63,0.00,,---,0.04,VWS V12.08,2013-11-02 22:09:00,
2013-11-02 18:10:00,63.7,50.9,29.64,NNW,329,6.0,10.0,63,0.00,,---,0.04,VWS V12.08,2013-11-02 22:10:00,
2013-11-02 18:11:00,63.6,50.8,29.63,NNW,329,5.0,10.0,63,0.00,,---,0.04,VWS V12.08,2013-11-02 22:11:00,
2013-11-02 18:12:00,63.6,50.8,29.63,NNW,329,6.0,7.0,63,0.00,,---,0.04,VWS V12.08,2013-11-02 22:12:00,
2013-11-02 18:14:00,63.4,51.0,29.64,NNW,328,7.0,7.0,64,0.00,,---,0.04,VWS V12.08,2013-11-02 22:14:00,
2013-11-02 18:16:00,63.4,51.0,29.64,NNW,327,6.0,9.0,64,0.00,,---,0.04,VWS V12.08,2013-11-02 22:16:00,
2013-11-02 18:17:00,63.3,50.9,29.64,NNW,327,4.0,9.0,64,0.00,,---,0.04,VWS V12.08,2013-11-02 22:17:00,
2013-11-02 18:19:00,63.1,50.7,29.64,NW,323,4.0,9.0,64,0.00,,---,0.04,VWS V12.08,2013-11-02 22:19:00,
2013-11-02 18:21:00,63.0,50.7,29.64,NNW,328,6.0,6.0,64,0.00,,---,0.04,VWS V12.08,2013-11-02 22:21:00,
2013-11-02 18:22:00,63.0,51.1,29.64,NNW,328,6.0,6.0,65,0.00,,---,0.04,VWS V12.08,2013-11-02 22:22:00,
2013-11-02 18:24:00,62.9,51.0,29.64,NNW,327,6.0,7.0,65,0.00,,---,0.04,VWS V12.08,2013-11-02 22:24:00,
2013-11-02 18:26:00,62.7,50.8,29.65,NW,313,6.0,9.0,65,0.00,,---,0.04,VWS V12.08,2013-11-02 22:26:00,
2013-11-02 18:27:00,62.7,50.8,29.65,NW,318,6.0,9.0,65,0.00,,---,0.04,VWS V12.08,2013-11-02 22:27:00,
2013-11-02 18:29:00,62.6,51.1,29.65,NW,325,7.0,9.0,66,0.00,,---,0.04,VWS V12.08,2013-11-02 22:29:00,
2013-11-02 18:32:00,62.5,51.0,29.65,NNW,328,6.0,9.0,66,0.00,,---,0.04,VWS V12.08,2013-11-02 22:32:00,
2013-11-02 18:33:00,62.4,50.9,29.65,NW,324,6.0,9.0,66,0.00,,---,0.04,VWS V12.08,2013-11-02 22:33:00,
2013-11-02 18:34:00,62.3,50.8,29.65,NNW,329,5.0,9.0,66,0.00,,---,0.04,VWS V12.08,2013-11-02 22:34:00,
2013-11-02 18:37:00,62.3,50.8,29.65,NW,326,6.0,10.0,66,0.00,,---,0.04,VWS V12.08,2013-11-02 22:37:00,
2013-11-02 18:38:00,62.2,50.7,29.65,NNW,331,8.0,11.0,66,0.00,,---,0.04,VWS V12.08,2013-11-02 22:38:00,
2013-11-02 18:39:00,62.1,51.0,29.65,NW,325,3.0,11.0,67,0.00,,---,0.04,VWS V12.08,2013-11-02 22:39:00,
2013-11-02 18:42:00,62.0,50.9,29.65,NW,324,7.0,13.0,67,0.00,,---,0.04,VWS V12.08,2013-11-02 22:42:00,
2013-11-02 18:43:00,62.0,50.5,29.65,NNW,331,7.0,13.0,66,0.00,,---,0.04,VWS V12.08,2013-11-02 22:43:00,
2013-11-02 18:45:00,62.0,50.9,29.65,NNW,330,10.0,13.0,67,0.00,,---,0.04,VWS V12.08,2013-11-02 22:45:00,
2013-11-02 18:47:00,62.0,50.9,29.65,NNW,341,7.0,13.0,67,0.00,,---,0.04,VWS V12.08,2013-11-02 22:47:00,
2013-11-02 18:48:00,62.0,50.9,29.65,NNW,327,6.0,13.0,67,0.00,,---,0.04,VWS V12.08,2013-11-02 22:48:00,
2013-11-02 18:49:00,61.9,50.8,29.65,NNW,336,5.0,13.0,67,0.00,,---,0.04,VWS V12.08,2013-11-02 22:49:00,
2013-11-02 18:50:00,61.9,50.8,29.65,NNW,336,9.0,13.0,67,0.00,,---,0.04,VWS V12.08,2013-11-02 22:50:00,
2013-11-02 18:52:00,61.9,50.8,29.65,NNW,327,13.0,13.0,67,0.00,,---,0.04,VWS V12.08,2013-11-02 22:52:00,
2013-11-02 18:53:00,61.9,50.8,29.65,NW,317,9.0,13.0,67,0.00,,---,0.04,VWS V12.08,2013-11-02 22:53:00,
2013-11-02 18:54:00,61.9,50.8,29.65,NNW,332,12.0,14.0,67,0.00,,---,0.04,VWS V12.08,2013-11-02 22:54:00,
2013-11-02 18:55:00,61.9,50.8,29.65,NNW,336,10.0,14.0,67,0.00,,---,0.04,VWS V12.08,2013-11-02 22:55:00,
2013-11-02 18:57:00,61.9,50.8,29.65,NNW,337,6.0,14.0,67,0.00,,---,0.04,VWS V12.08,2013-11-02 22:57:00,
2013-11-02 18:58:00,61.9,50.8,29.65,NNW,338,3.0,14.0,67,0.00,,---,0.04,VWS V12.08,2013-11-02 22:58:00,
2013-11-02 18:59:00,61.8,50.7,29.66,NNW,331,6.0,14.0,67,0.00,,---,0.04,VWS V12.08,2013-11-02 22:59:00,
2013-11-02 19:01:00,61.8,50.7,29.66,NNW,331,10.0,14.0,67,0.00,,---,0.04,VWS V12.08,2013-11-02 23:01:00,
2013-11-02 19:03:00,61.8,50.7,29.66,NNW,342,7.0,13.0,67,0.00,,---,0.04,VWS V12.08,2013-11-02 23:03:00,
2013-11-02 19:04:00,61.7,50.6,29.66,NNW,336,11.0,13.0,67,0.00,,---,0.04,VWS V12.08,2013-11-02 23:04:00,
2013-11-02 19:06:00,61.6,50.5,29.65,NNW,331,12.0,15.0,67,0.00,,---,0.04,VWS V12.08,2013-11-02 23:06:00,
2013-11-02 19:08:00,61.5,50.5,29.65,NNW,344,13.0,18.0,67,0.00,,---,0.04,VWS V12.08,2013-11-02 23:08:00,
2013-11-02 19:09:00,61.5,50.5,29.65,NNW,333,14.0,18.0,67,0.00,,---,0.04,VWS V12.08,2013-11-02 23:09:00,
2013-11-02 19:11:00,61.5,50.0,29.65,NNW,333,8.0,14.0,66,0.00,,---,0.04,VWS V12.08,2013-11-02 23:11:00,
2013-11-02 19:13:00,61.4,50.0,29.66,NNW,328,9.0,17.0,66,0.00,,---,0.04,VWS V12.08,2013-11-02 23:13:00,
2013-11-02 19:14:00,61.4,50.0,29.66,NW,323,12.0,17.0,66,0.00,,---,0.04,VWS V12.08,2013-11-02 23:14:00,
2013-11-02 19:15:00,61.3,49.9,29.66,NNW,328,11.0,17.0,66,0.00,,---,0.04,VWS V12.08,2013-11-02 23:15:00,
2013-11-02 19:16:00,61.3,49.9,29.66,NNW,330,11.0,17.0,66,0.00,,---,0.04,VWS V12.08,2013-11-02 23:16:00,
2013-11-02 19:18:00,61.2,49.8,29.67,NNW,336,10.0,17.0,66,0.00,,---,0.04,VWS V12.08,2013-11-02 23:18:00,
2013-11-02 19:19:00,61.2,49.8,29.67,NNW,344,6.0,17.0,66,0.00,,---,0.04,VWS V12.08,2013-11-02 23:19:00,
2013-11-02 19:20:00,61.1,49.7,29.67,NNW,327,6.0,17.0,66,0.00,,---,0.04,VWS V12.08,2013-11-02 23:20:00,
2013-11-02 19:21:00,61.1,49.7,29.67,NNW,327,13.0,15.0,66,0.00,,---,0.04,VWS V12.08,2013-11-02 23:21:00,
2013-11-02 19:23:00,61.0,49.6,29.67,NNW,345,8.0,16.0,66,0.00,,---,0.04,VWS V12.08,2013-11-02 23:23:00,
2013-11-02 19:24:00,61.0,49.6,29.67,NW,325,10.0,16.0,66,0.00,,---,0.04,VWS V12.08,2013-11-02 23:24:00,
2013-11-02 19:25:00,60.9,49.5,29.67,NNW,327,9.0,16.0,66,0.00,,---,0.04,VWS V12.08,2013-11-02 23:25:00,
2013-11-02 19:27:00,60.9,49.5,29.67,NW,315,15.0,16.0,66,0.00,,---,0.04,VWS V12.08,2013-11-02 23:27:00,
2013-11-02 19:28:00,60.8,49.0,29.67,NW,326,12.0,16.0,65,0.00,,---,0.04,VWS V12.08,2013-11-02 23:28:00,
2013-11-02 19:30:00,60.8,49.0,29.68,NW,317,13.0,16.0,65,0.00,,---,0.04,VWS V12.08,2013-11-02 23:30:00,
2013-11-02 19:32:00,60.8,49.0,29.68,NNW,342,7.0,13.0,65,0.00,,---,0.04,VWS V12.08,2013-11-02 23:32:00,
2013-11-02 19:33:00,60.8,48.6,29.68,NNW,335,6.0,15.0,64,0.00,,---,0.04,VWS V12.08,2013-11-02 23:33:00,
2013-11-02 19:34:00,60.8,48.6,29.68,NNW,332,7.0,15.0,64,0.00,,---,0.04,VWS V12.08,2013-11-02 23:34:00,
2013-11-02 19:35:00,60.8,48.6,29.69,NW,322,9.0,15.0,64,0.00,,---,0.04,VWS V12.08,2013-11-02 23:35:00,
2013-11-02 19:36:00,60.8,48.6,29.69,NNW,329,6.0,15.0,64,0.00,,---,0.04,VWS V12.08,2013-11-02 23:36:00,
2013-11-02 19:37:00,60.8,48.6,29.69,NNW,336,9.0,15.0,64,0.00,,---,0.04,VWS V12.08,2013-11-02 23:37:00,
2013-11-02 19:39:00,60.8,49.0,29.69,NW,325,5.0,15.0,65,0.00,,---,0.04,VWS V12.08,2013-11-02 23:39:00,
2013-11-02 19:40:00,60.8,49.0,29.69,NNW,327,6.0,15.0,65,0.00,,---,0.04,VWS V12.08,2013-11-02 23:40:00,
2013-11-02 19:41:00,60.8,49.0,29.69,NNW,332,11.0,15.0,65,0.00,,---,0.04,VWS V12.08,2013-11-02 23:41:00,
2013-11-02 19:42:00,60.8,49.0,29.69,NW,317,8.0,12.0,65,0.00,,---,0.04,VWS V12.08,2013-11-02 23:42:00,
2013-11-02 19:44:00,60.7,48.9,29.69,NW,320,6.0,12.0,65,0.00,,---,0.04,VWS V12.08,2013-11-02 23:44:00,
2013-11-02 19:45:00,60.7,48.9,29.70,NW,320,12.0,14.0,65,0.00,,---,0.04,VWS V12.08,2013-11-02 23:45:00,
2013-11-02 19:46:00,60.7,48.9,29.70,NW,315,12.0,14.0,65,0.00,,---,0.04,VWS V12.08,2013-11-02 23:46:00,
2013-11-02 19:47:00,60.7,48.9,29.70,NW,313,11.0,14.0,65,0.00,,---,0.04,VWS V12.08,2013-11-02 23:47:00,
2013-11-02 19:49:00,60.7,48.9,29.70,NW,317,11.0,14.0,65,0.00,,---,0.04,VWS V12.08,2013-11-02 23:49:00,
2013-11-02 19:50:00,60.7,48.9,29.70,NW,315,11.0,14.0,65,0.00,,---,0.04,VWS V12.08,2013-11-02 23:50:00,
2013-11-02 19:51:00,60.7,48.9,29.70,NW,323,7.0,14.0,65,0.00,,---,0.04,VWS V12.08,2013-11-02 23:51:00,
2013-11-02 19:52:00,60.6,48.8,29.70,NW,316,6.0,11.0,65,0.00,,---,0.04,VWS V12.08,2013-11-02 23:52:00,
2013-11-02 19:54:00,60.6,48.8,29.70,NW,317,5.0,12.0,65,0.00,,---,0.04,VWS V12.08,2013-11-02 23:54:00,
2013-11-02 19:55:00,60.5,48.7,29.70,NW,317,13.0,15.0,65,0.00,,---,0.04,VWS V12.08,2013-11-02 23:55:00,
2013-11-02 19:56:00,60.5,48.7,29.70,NW,304,10.0,15.0,65,0.00,,---,0.04,VWS V12.08,2013-11-02 23:56:00,
2013-11-02 19:57:00,60.5,48.7,29.70,NW,319,10.0,15.0,65,0.00,,---,0.04,VWS V12.08,2013-11-02 23:57:00,
2013-11-02 19:59:00,60.5,48.7,29.70,NW,309,13.0,15.0,65,0.00,,---,0.04,VWS V12.08,2013-11-02 23:59:00,
2013-11-02 20:01:00,60.4,48.6,29.70,NW,316,11.0,15.0,65,0.00,,---,0.04,VWS V12.08,2013-11-03 00:01:00,
2013-11-02 20:02:00,60.4,48.6,29.71,NW,311,9.0,12.0,65,0.00,,---,0.04,VWS V12.08,2013-11-03 00:02:00,
2013-11-02 20:04:00,60.3,48.5,29.71,NW,305,11.0,14.0,65,0.00,,---,0.04,VWS V12.08,2013-11-03 00:04:00,
2013-11-02 20:05:00,60.3,48.5,29.71,NW,315,11.0,14.0,65,0.00,,---,0.04,VWS V12.08,2013-11-03 00:05:00,
2013-11-02 20:06:00,60.2,48.4,29.70,NW,317,7.0,15.0,65,0.00,,---,0.04,VWS V12.08,2013-11-03 00:06:00,
2013-11-02 20:07:00,60.2,48.4,29.70,NW,305,6.0,15.0,65,0.00,,---,0.04,VWS V12.08,2013-11-03 00:07:00,
2013-11-02 20:08:00,60.1,48.3,29.70,NW,317,10.0,15.0,65,0.00,,---,0.04,VWS V12.08,2013-11-03 00:08:00,
2013-11-02 20:09:00,60.1,48.3,29.70,NNW,328,3.0,15.0,65,0.00,,---,0.04,VWS V12.08,2013-11-03 00:09:00,
2013-11-02 20:10:00,60.1,48.3,29.70,NW,310,9.0,15.0,65,0.00,,---,0.04,VWS V12.08,2013-11-03 00:10:00,
2013-11-02 20:12:00,60.0,47.8,29.71,NW,307,12.0,15.0,64,0.00,,---,0.04,VWS V12.08,2013-11-03 00:12:00,
2013-11-02 20:13:00,59.9,47.7,29.71,NW,304,13.0,16.0,64,0.00,,---,0.04,VWS V12.08,2013-11-03 00:13:00,
2013-11-02 20:14:00,59.9,47.7,29.71,NNW,329,7.0,16.0,64,0.00,,---,0.04,VWS V12.08,2013-11-03 00:14:00,
2013-11-02 20:15:00,59.9,47.7,29.71,NNW,331,6.0,16.0,64,0.00,,---,0.04,VWS V12.08,2013-11-03 00:15:00,
2013-11-02 20:17:00,59.9,47.7,29.71,NW,315,8.0,16.0,64,0.00,,---,0.04,VWS V12.08,2013-11-03 00:17:00,
2013-11-02 20:18:00,59.9,48.1,29.71,NNW,332,11.0,16.0,65,0.00,,---,0.04,VWS V12.08,2013-11-03 00:18:00,
2013-11-02 20:19:00,59.8,48.0,29.70,NW,317,14.0,16.0,65,0.00,,---,0.04,VWS V12.08,2013-11-03 00:19:00,
2013-11-02 20:20:00,59.8,48.0,29.71,NW,323,11.0,16.0,65,0.00,,---,0.04,VWS V12.08,2013-11-03 00:20:00,
2013-11-02 20:22:00,59.7,47.5,29.71,NW,325,10.0,20.0,64,0.00,,---,0.04,VWS V12.08,2013-11-03 00:22:00,
2013-11-02 20:23:00,59.7,47.5,29.71,NW,322,14.0,20.0,64,0.00,,---,0.04,VWS V12.08,2013-11-03 00:23:00,
2013-11-02 20:24:00,59.7,47.5,29.71,NNW,327,10.0,20.0,64,0.00,,---,0.04,VWS V12.08,2013-11-03 00:24:00,
2013-11-02 20:25:00,59.6,47.4,29.71,NW,315,7.0,20.0,64,0.00,,---,0.04,VWS V12.08,2013-11-03 00:25:00,
2013-11-02 20:28:00,59.6,47.4,29.71,NW,306,14.0,20.0,64,0.00,,---,0.04,VWS V12.08,2013-11-03 00:28:00,
2013-11-02 20:29:00,59.6,47.4,29.72,NNW,328,13.0,20.0,64,0.00,,---,0.04,VWS V12.08,2013-11-03 00:29:00,
2013-11-02 20:30:00,59.6,47.4,29.72,NW,306,14.0,20.0,64,0.00,,---,0.04,VWS V12.08,2013-11-03 00:30:00,
2013-11-02 20:33:00,59.5,47.3,29.72,WNW,301,15.0,16.0,64,0.00,,---,0.04,VWS V12.08,2013-11-03 00:33:00,
2013-11-02 20:34:00,59.5,47.3,29.72,NNW,338,13.0,17.0,64,0.00,,---,0.04,VWS V12.08,2013-11-03 00:34:00,
2013-11-02 20:35:00,59.5,47.3,29.72,NW,321,12.0,17.0,64,0.00,,---,0.04,VWS V12.08,2013-11-03 00:35:00,
2013-11-02 20:38:00,59.4,47.2,29.72,WNW,302,14.0,19.0,64,0.00,,---,0.04,VWS V12.08,2013-11-03 00:38:00,
2013-11-02 20:40:00,59.4,47.2,29.72,NW,323,12.0,19.0,64,0.00,,---,0.04,VWS V12.08,2013-11-03 00:40:00,
2013-11-02 20:43:00,59.4,47.2,29.72,NW,306,11.0,17.0,64,0.00,,---,0.04,VWS V12.08,2013-11-03 00:43:00,
2013-11-02 20:44:00,59.4,47.2,29.72,NW,304,8.0,17.0,64,0.00,,---,0.04,VWS V12.08,2013-11-03 00:44:00,
2013-11-02 20:45:00,59.4,47.2,29.72,NW,311,7.0,17.0,64,0.00,,---,0.04,VWS V12.08,2013-11-03 00:45:00,
2013-11-02 20:46:00,59.4,47.2,29.72,NW,307,18.0,19.0,64,0.00,,---,0.04,VWS V12.08,2013-11-03 00:46:00,
2013-11-02 20:48:00,59.4,46.8,29.73,NW,312,13.0,19.0,63,0.00,,---,0.04,VWS V12.08,2013-11-03 00:48:00,
2013-11-02 20:49:00,59.4,46.8,29.73,NNW,327,10.0,19.0,63,0.00,,---,0.04,VWS V12.08,2013-11-03 00:49:00,
2013-11-02 20:50:00,59.4,46.8,29.73,NW,307,11.0,19.0,63,0.00,,---,0.04,VWS V12.08,2013-11-03 00:50:00,
2013-11-02 20:51:00,59.4,46.8,29.73,NW,319,13.0,14.0,63,0.00,,---,0.04,VWS V12.08,2013-11-03 00:51:00,
2013-11-02 20:53:00,59.3,46.7,29.72,NW,309,14.0,21.0,63,0.00,,---,0.04,VWS V12.08,2013-11-03 00:53:00,
2013-11-02 20:54:00,59.3,46.7,29.72,NW,309,16.0,21.0,63,0.00,,---,0.04,VWS V12.08,2013-11-03 00:54:00,
2013-11-02 20:55:00,59.3,46.3,29.72,NW,313,10.0,21.0,62,0.00,,---,0.04,VWS V12.08,2013-11-03 00:55:00,
2013-11-02 20:56:00,59.3,46.3,29.72,NNW,333,15.0,21.0,62,0.00,,---,0.04,VWS V12.08,2013-11-03 00:56:00,
2013-11-02 20:58:00,59.2,46.6,29.72,NW,317,12.0,21.0,63,0.00,,---,0.04,VWS V12.08,2013-11-03 00:58:00,
2013-11-02 20:59:00,59.2,46.6,29.72,NW,309,11.0,21.0,63,0.00,,---,0.04,VWS V12.08,2013-11-03 00:59:00,
2013-11-02 21:00:00,59.1,46.5,29.72,WNW,300,8.0,21.0,63,0.00,,---,0.04,VWS V12.08,2013-11-03 01:00:00,
2013-11-02 21:01:00,59.1,46.5,29.72,NW,310,11.0,21.0,63,0.00,,---,0.04,VWS V12.08,2013-11-03 01:01:00,
2013-11-02 21:03:00,59.0,46.4,29.72,NW,321,12.0,14.0,63,0.00,,---,0.04,VWS V12.08,2013-11-03 01:03:00,
2013-11-02 21:04:00,59.0,46.4,29.73,NW,314,9.0,14.0,63,0.00,,---,0.04,VWS V12.08,2013-11-03 01:04:00,
2013-11-02 21:05:00,58.9,46.3,29.73,NNW,340,9.0,14.0,63,0.00,,---,0.04,VWS V12.08,2013-11-03 01:05:00,
2013-11-02 21:06:00,58.9,46.3,29.73,NW,317,9.0,14.0,63,0.00,,---,0.04,VWS V12.08,2013-11-03 01:06:00,
2013-11-02 21:08:00,58.8,46.7,29.73,NW,311,11.0,14.0,64,0.00,,---,0.04,VWS V12.08,2013-11-03 01:08:00,
2013-11-02 21:09:00,58.7,46.6,29.73,NW,315,10.0,14.0,64,0.00,,---,0.04,VWS V12.08,2013-11-03 01:09:00,
2013-11-02 21:10:00,58.7,46.6,29.73,NW,306,7.0,14.0,64,0.00,,---,0.04,VWS V12.08,2013-11-03 01:10:00,
2013-11-02 21:11:00,58.6,46.5,29.73,NW,313,7.0,14.0,64,0.00,,---,0.04,VWS V12.08,2013-11-03 01:11:00,
2013-11-02 21:13:00,58.5,46.4,29.73,NW,318,6.0,12.0,64,0.00,,---,0.04,VWS V12.08,2013-11-03 01:13:00,
2013-11-02 21:14:00,58.5,46.4,29.73,WNW,299,10.0,12.0,64,0.00,,---,0.04,VWS V12.08,2013-11-03 01:14:00,
2013-11-02 21:15:00,58.5,46.8,29.73,NW,311,7.0,12.0,65,0.00,,---,0.04,VWS V12.08,2013-11-03 01:15:00,
2013-11-02 21:16:00,58.4,46.7,29.73,NW,321,6.0,12.0,65,0.00,,---,0.04,VWS V12.08,2013-11-03 01:16:00,
2013-11-02 21:17:00,58.4,46.7,29.73,NW,320,7.0,12.0,65,0.00,,---,0.04,VWS V12.08,2013-11-03 01:17:00,
2013-11-02 21:18:00,58.3,46.6,29.73,NW,317,6.0,12.0,65,0.00,,---,0.04,VWS V12.08,2013-11-03 01:18:00,
2013-11-02 21:19:00,58.3,46.6,29.73,NW,319,6.0,12.0,65,0.00,,---,0.04,VWS V12.08,2013-11-03 01:19:00,
2013-11-02 21:21:00,58.2,46.5,29.73,NW,315,8.0,12.0,65,0.00,,---,0.04,VWS V12.08,2013-11-03 01:21:00,
2013-11-02 21:22:00,58.2,46.5,29.73,NW,311,5.0,11.0,65,0.00,,---,0.04,VWS V12.08,2013-11-03 01:22:00,
2013-11-02 21:23:00,58.1,46.4,29.73,NW,323,9.0,11.0,65,0.00,,---,0.04,VWS V12.08,2013-11-03 01:23:00,
2013-11-02 21:25:00,58.1,46.8,29.73,NW,325,6.0,11.0,66,0.00,,---,0.04,VWS V12.08,2013-11-03 01:25:00,
2013-11-02 21:26:00,58.0,46.7,29.73,NW,325,6.0,11.0,66,0.00,,---,0.04,VWS V12.08,2013-11-03 01:26:00,
2013-11-02 21:27:00,58.0,46.7,29.73,NW,324,7.0,11.0,66,0.00,,---,0.04,VWS V12.08,2013-11-03 01:27:00,
2013-11-02 21:28:00,57.9,46.6,29.73,NW,307,6.0,11.0,66,0.00,,---,0.04,VWS V12.08,2013-11-03 01:28:00,
2013-11-02 21:30:00,57.8,46.5,29.74,NW,318,6.0,11.0,66,0.00,,---,0.04,VWS V12.08,2013-11-03 01:30:00,
2013-11-02 21:31:00,57.8,46.9,29.74,NW,318,5.0,7.0,67,0.00,,---,0.04,VWS V12.08,2013-11-03 01:31:00,
2013-11-02 21:32:00,57.7,46.8,29.73,NW,319,4.0,7.0,67,0.00,,---,0.04,VWS V12.08,2013-11-03 01:32:00,
2013-11-02 21:33:00,57.7,46.8,29.73,NW,309,7.0,9.0,67,0.00,,---,0.04,VWS V12.08,2013-11-03 01:33:00,
2013-11-02 21:35:00,57.7,46.8,29.73,WNW,303,13.0,13.0,67,0.00,,---,0.04,VWS V12.08,2013-11-03 01:35:00,
2013-11-02 21:36:00,57.6,47.1,29.73,NW,316,7.0,13.0,68,0.00,,---,0.04,VWS V12.08,2013-11-03 01:36:00,
2013-11-02 21:37:00,57.6,47.1,29.73,NW,305,5.0,13.0,68,0.00,,---,0.04,VWS V12.08,2013-11-03 01:37:00,
2013-11-02 21:38:00,57.6,47.1,29.73,NW,314,10.0,13.0,68,0.00,,---,0.04,VWS V12.08,2013-11-03 01:38:00,
2013-11-02 21:40:00,57.5,47.0,29.73,NW,312,7.0,13.0,68,0.00,,---,0.04,VWS V12.08,2013-11-03 01:40:00,
2013-11-02 21:42:00,57.5,47.4,29.73,NW,309,12.0,14.0,69,0.00,,---,0.04,VWS V12.08,2013-11-03 01:42:00,
2013-11-02 21:43:00,57.4,46.9,29.73,WNW,298,10.0,14.0,68,0.00,,---,0.04,VWS V12.08,2013-11-03 01:43:00,
2013-11-02 21:44:00,57.4,47.3,29.74,WNW,299,8.0,14.0,69,0.00,,---,0.04,VWS V12.08,2013-11-03 01:44:00,
2013-11-02 21:45:00,57.4,47.3,29.74,NW,320,10.0,14.0,69,0.00,,---,0.04,VWS V12.08,2013-11-03 01:45:00,
2013-11-02 21:47:00,57.4,47.3,29.74,NW,309,12.0,14.0,69,0.00,,---,0.04,VWS V12.08,2013-11-03 01:47:00,
2013-11-02 21:48:00,57.4,47.3,29.74,NW,321,7.0,14.0,69,0.00,,---,0.04,VWS V12.08,2013-11-03 01:48:00,
2013-11-02 21:49:00,57.4,47.3,29.74,NW,306,12.0,14.0,69,0.00,,---,0.04,VWS V12.08,2013-11-03 01:49:00,
2013-11-02 21:50:00,57.4,47.3,29.74,WNW,297,11.0,14.0,69,0.00,,---,0.04,VWS V12.08,2013-11-03 01:50:00,
2013-11-02 21:52:00,57.3,47.2,29.74,NW,317,9.0,12.0,69,0.00,,---,0.04,VWS V12.08,2013-11-03 01:52:00,
2013-11-02 21:53:00,57.3,47.2,29.74,NW,310,10.0,12.0,69,0.00,,---,0.04,VWS V12.08,2013-11-03 01:53:00,
2013-11-02 21:54:00,57.3,47.2,29.74,NW,313,8.0,14.0,69,0.00,,---,0.04,VWS V12.08,2013-11-03 01:54:00,
2013-11-02 21:56:00,57.3,47.2,29.74,NNW,338,5.0,14.0,69,0.00,,---,0.04,VWS V12.08,2013-11-03 01:56:00,
2013-11-02 21:57:00,57.3,47.2,29.74,NW,319,7.0,14.0,69,0.00,,---,0.04,VWS V12.08,2013-11-03 01:57:00,
2013-11-02 21:58:00,57.2,47.1,29.74,NW,326,6.0,14.0,69,0.00,,---,0.04,VWS V12.08,2013-11-03 01:58:00,
2013-11-02 21:59:00,57.2,47.1,29.74,NW,315,10.0,14.0,69,0.00,,---,0.04,VWS V12.08,2013-11-03 01:59:00,
2013-11-02 22:01:00,57.2,47.5,29.74,NW,319,6.0,14.0,70,0.00,,---,0.04,VWS V12.08,2013-11-03 02:01:00,
2013-11-02 22:02:00,57.1,47.4,29.74,WNW,303,8.0,11.0,70,0.00,,---,0.04,VWS V12.08,2013-11-03 02:02:00,
2013-11-02 22:03:00,57.1,47.4,29.74,WNW,300,10.0,11.0,70,0.00,,---,0.04,VWS V12.08,2013-11-03 02:03:00,
2013-11-02 22:04:00,57.1,47.4,29.74,NW,321,11.0,12.0,70,0.00,,---,0.04,VWS V12.08,2013-11-03 02:04:00,
2013-11-02 22:06:00,57.0,47.3,29.74,WNW,302,9.0,12.0,70,0.00,,---,0.04,VWS V12.08,2013-11-03 02:06:00,
2013-11-02 22:08:00,56.9,47.2,29.74,NW,321,7.0,12.0,70,0.00,,---,0.04,VWS V12.08,2013-11-03 02:08:00,
2013-11-02 22:09:00,56.9,47.2,29.74,NW,307,7.0,12.0,70,0.00,,---,0.04,VWS V12.08,2013-11-03 02:09:00,
2013-11-02 22:11:00,56.9,47.2,29.74,NW,318,6.0,6.0,70,0.00,,---,0.04,VWS V12.08,2013-11-03 02:11:00,
2013-11-02 22:13:00,56.8,47.9,29.74,NW,319,5.0,9.0,72,0.00,,---,0.04,VWS V12.08,2013-11-03 02:13:00,
2013-11-02 22:14:00,56.8,47.1,29.74,NNW,333,6.0,9.0,70,0.00,,---,0.04,VWS V12.08,2013-11-03 02:14:00,
2013-11-02 22:16:00,56.7,47.0,29.74,NNW,328,5.0,9.0,70,0.00,,---,0.04,VWS V12.08,2013-11-03 02:16:00,
2013-11-02 22:18:00,56.7,47.0,29.74,NW,324,7.0,9.0,70,0.00,,---,0.04,VWS V12.08,2013-11-03 02:18:00,
2013-11-02 22:19:00,56.6,46.9,29.74,NW,323,4.0,9.0,70,0.00,,---,0.04,VWS V12.08,2013-11-03 02:19:00,
2013-11-02 22:20:00,56.6,46.9,29.74,NW,323,6.0,9.0,70,0.00,,---,0.04,VWS V12.08,2013-11-03 02:20:00,
2013-11-02 22:22:00,56.6,46.9,29.74,NW,323,4.0,6.0,70,0.00,,---,0.04,VWS V12.08,2013-11-03 02:22:00,
2013-11-02 22:23:00,56.5,46.8,29.74,NW,323,5.0,6.0,70,0.00,,---,0.04,VWS V12.08,2013-11-03 02:23:00,
2013-11-02 22:24:00,56.5,46.8,29.74,NW,323,6.0,7.0,70,0.00,,---,0.04,VWS V12.08,2013-11-03 02:24:00,
2013-11-02 22:25:00,56.5,46.8,29.74,NW,323,6.0,7.0,70,0.00,,---,0.04,VWS V12.08,2013-11-03 02:25:00,
2013-11-02 22:27:00,56.4,47.1,29.74,NW,323,5.0,7.0,71,0.00,,---,0.04,VWS V12.08,2013-11-03 02:27:00,
2013-11-02 22:28:00,56.4,47.1,29.74,NW,323,6.0,7.0,71,0.00,,---,0.04,VWS V12.08,2013-11-03 02:28:00,
2013-11-02 22:29:00,56.4,47.1,29.75,NW,323,7.0,7.0,71,0.00,,---,0.04,VWS V12.08,2013-11-03 02:29:00,
2013-11-02 22:30:00,56.4,47.1,29.75,NW,323,5.0,7.0,71,0.00,,---,0.04,VWS V12.08,2013-11-03 02:30:00,
2013-11-02 22:32:00,56.4,47.1,29.75,NW,320,7.0,7.0,71,0.00,,---,0.04,VWS V12.08,2013-11-03 02:32:00,
2013-11-02 22:33:00,56.4,47.1,29.75,NW,318,5.0,7.0,71,0.00,,---,0.04,VWS V12.08,2013-11-03 02:33:00,
2013-11-02 22:34:00,56.3,47.0,29.75,NW,317,6.0,7.0,71,0.00,,---,0.04,VWS V12.08,2013-11-03 02:34:00,
2013-11-02 22:35:00,56.3,47.0,29.75,NW,317,5.0,8.0,71,0.00,,---,0.04,VWS V12.08,2013-11-03 02:35:00,
2013-11-02 22:38:00,56.3,47.0,29.75,NW,326,5.0,10.0,71,0.00,,---,0.04,VWS V12.08,2013-11-03 02:38:00,
2013-11-02 22:39:00,56.3,47.4,29.75,NW,317,5.0,10.0,72,0.00,,---,0.04,VWS V12.08,2013-11-03 02:39:00,
2013-11-02 22:40:00,56.2,47.3,29.75,NW,316,7.0,10.0,72,0.00,,---,0.04,VWS V12.08,2013-11-03 02:40:00,
2013-11-02 22:43:00,56.2,47.3,29.75,NW,318,5.0,9.0,72,0.00,,---,0.04,VWS V12.08,2013-11-03 02:43:00,
2013-11-02 22:44:00,56.2,47.3,29.75,NW,325,5.0,10.0,72,0.00,,---,0.04,VWS V12.08,2013-11-03 02:44:00,
2013-11-02 22:45:00,56.2,47.3,29.75,NW,317,5.0,10.0,72,0.00,,---,0.04,VWS V12.08,2013-11-03 02:45:00,
2013-11-02 22:48:00,56.1,47.2,29.75,WNW,295,8.0,10.0,72,0.00,,---,0.04,VWS V12.08,2013-11-03 02:48:00,
2013-11-02 22:49:00,56.1,47.2,29.75,WNW,300,6.0,10.0,72,0.00,,---,0.04,VWS V12.08,2013-11-03 02:49:00,
2013-11-02 22:50:00,56.1,47.2,29.75,WNW,299,6.0,10.0,72,0.00,,---,0.04,VWS V12.08,2013-11-03 02:50:00,
2013-11-02 22:51:00,56.1,47.2,29.75,NW,304,10.0,10.0,72,0.00,,---,0.04,VWS V12.08,2013-11-03 02:51:00,
2013-11-02 22:53:00,56.1,47.2,29.75,NW,315,9.0,9.0,72,0.00,,---,0.04,VWS V12.08,2013-11-03 02:53:00,
2013-11-02 22:54:00,56.1,47.2,29.75,NW,315,8.0,9.0,72,0.00,,---,0.04,VWS V12.08,2013-11-03 02:54:00,
2013-11-02 22:55:00,56.1,47.2,29.75,NW,315,6.0,9.0,72,0.00,,---,0.04,VWS V12.08,2013-11-03 02:55:00,
2013-11-02 22:56:00,56.1,47.2,29.75,NW,315,5.0,9.0,72,0.00,,---,0.04,VWS V12.08,2013-11-03 02:56:00,
2013-11-02 22:58:00,56.1,47.2,29.75,NW,311,5.0,9.0,72,0.00,,---,0.04,VWS V12.08,2013-11-03 02:58:00,
2013-11-02 22:59:00,56.1,47.2,29.75,NW,311,4.0,9.0,72,0.00,,---,0.04,VWS V12.08,2013-11-03 02:59:00,
2013-11-02 23:00:00,56.1,47.2,29.75,NW,311,5.0,9.0,72,0.00,,---,0.04,VWS V12.08,2013-11-03 03:00:00,
2013-11-02 23:01:00,56.1,47.2,29.76,NW,311,5.0,6.0,72,0.00,,---,0.04,VWS V12.08,2013-11-03 03:01:00,
2013-11-02 23:03:00,56.1,47.2,29.76,NW,309,8.0,8.0,72,0.00,,---,0.04,VWS V12.08,2013-11-03 03:03:00,
2013-11-02 23:04:00,56.1,47.2,29.75,NW,309,5.0,8.0,72,0.00,,---,0.04,VWS V12.08,2013-11-03 03:04:00,
2013-11-02 23:05:00,56.1,47.2,29.75,NW,309,4.0,8.0,72,0.00,,---,0.04,VWS V12.08,2013-11-03 03:05:00,
2013-11-02 23:06:00,56.0,47.1,29.75,WNW,286,6.0,8.0,72,0.00,,---,0.04,VWS V12.08,2013-11-03 03:06:00,
2013-11-02 23:09:00,56.0,47.1,29.75,WNW,294,4.0,9.0,72,0.00,,---,0.04,VWS V12.08,2013-11-03 03:09:00,
2013-11-02 23:10:00,56.0,47.1,29.75,WNW,292,4.0,9.0,72,0.00,,---,0.04,VWS V12.08,2013-11-03 03:10:00,
2013-11-02 23:12:00,56.0,47.1,29.75,WNW,292,4.0,7.0,72,0.00,,---,0.04,VWS V12.08,2013-11-03 03:12:00,
2013-11-02 23:14:00,56.0,47.1,29.75,WNW,291,3.0,7.0,72,0.00,,---,0.04,VWS V12.08,2013-11-03 03:14:00,
2013-11-02 23:15:00,55.9,47.4,29.75,WNW,291,3.0,7.0,73,0.00,,---,0.04,VWS V12.08,2013-11-03 03:15:00,
2013-11-02 23:17:00,55.9,47.4,29.75,WNW,291,4.0,7.0,73,0.00,,---,0.04,VWS V12.08,2013-11-03 03:17:00,
2013-11-02 23:19:00,55.9,47.4,29.75,WNW,291,1.0,7.0,73,0.00,,---,0.04,VWS V12.08,2013-11-03 03:19:00,
2013-11-02 23:20:00,55.8,47.3,29.75,WNW,291,5.0,7.0,73,0.00,,---,0.04,VWS V12.08,2013-11-03 03:20:00,
2013-11-02 23:22:00,55.8,47.3,29.76,WNW,290,4.0,5.0,73,0.00,,---,0.04,VWS V12.08,2013-11-03 03:22:00,
2013-11-02 23:24:00,55.7,47.2,29.76,WNW,290,3.0,5.0,73,0.00,,---,0.04,VWS V12.08,2013-11-03 03:24:00,
2013-11-02 23:25:00,55.7,47.2,29.76,WNW,290,4.0,5.0,73,0.00,,---,0.04,VWS V12.08,2013-11-03 03:25:00,
2013-11-02 23:27:00,55.7,47.2,29.76,WNW,290,5.0,6.0,73,0.00,,---,0.04,VWS V12.08,2013-11-03 03:27:00,
2013-11-02 23:29:00,55.7,47.2,29.77,WNW,286,5.0,6.0,73,0.00,,---,0.04,VWS V12.08,2013-11-03 03:29:00,
2013-11-02 23:30:00,55.7,47.2,29.77,WNW,286,3.0,6.0,73,0.00,,---,0.04,VWS V12.08,2013-11-03 03:30:00,
2013-11-02 23:31:00,55.7,47.2,29.77,WNW,284,4.0,4.0,73,0.00,,---,0.04,VWS V12.08,2013-11-03 03:31:00,
2013-11-02 23:33:00,55.6,47.5,29.77,West,261,5.0,8.0,74,0.00,,---,0.04,VWS V12.08,2013-11-03 03:33:00,
2013-11-02 23:34:00,55.7,47.5,29.77,West,261,7.0,8.0,74,0.00,,---,0.04,VWS V12.08,2013-11-03 03:34:00,
2013-11-02 23:35:00,55.6,47.5,29.77,West,260,4.0,8.0,74,0.00,,---,0.04,VWS V12.08,2013-11-03 03:35:00,
2013-11-02 23:36:00,55.6,47.5,29.77,West,263,5.0,8.0,74,0.00,,---,0.04,VWS V12.08,2013-11-03 03:36:00,
2013-11-02 23:38:00,55.6,47.5,29.76,WNW,286,8.0,9.0,74,0.00,,---,0.04,VWS V12.08,2013-11-03 03:38:00,
2013-11-02 23:39:00,55.6,47.5,29.76,WNW,286,6.0,9.0,74,0.00,,---,0.04,VWS V12.08,2013-11-03 03:39:00,
2013-11-02 23:40:00,55.6,47.5,29.76,WNW,286,4.0,9.0,74,0.00,,---,0.04,VWS V12.08,2013-11-03 03:40:00,
2013-11-02 23:41:00,55.6,47.5,29.76,WNW,300,4.0,6.0,74,0.00,,---,0.04,VWS V12.08,2013-11-03 03:41:00,
2013-11-02 23:43:00,55.6,47.5,29.76,West,277,6.0,11.0,74,0.00,,---,0.04,VWS V12.08,2013-11-03 03:43:00,
2013-11-02 23:44:00,55.5,47.4,29.77,WNW,289,8.0,11.0,74,0.00,,---,0.04,VWS V12.08,2013-11-03 03:44:00,
2013-11-02 23:45:00,55.5,47.7,29.77,WNW,292,10.0,11.0,75,0.00,,---,0.04,VWS V12.08,2013-11-03 03:45:00,
2013-11-02 23:46:00,55.5,47.4,29.77,WNW,300,6.0,11.0,74,0.00,,---,0.04,VWS V12.08,2013-11-03 03:46:00,
2013-11-02 23:48:00,55.5,47.4,29.77,WNW,300,9.0,12.0,74,0.00,,---,0.04,VWS V12.08,2013-11-03 03:48:00,
2013-11-02 23:50:00,55.4,47.3,29.77,NW,313,4.0,12.0,74,0.00,,---,0.04,VWS V12.08,2013-11-03 03:50:00,
2013-11-02 23:51:00,55.4,47.6,29.77,NW,304,6.0,12.0,75,0.00,,---,0.04,VWS V12.08,2013-11-03 03:51:00,
2013-11-02 23:52:00,55.3,47.5,29.76,WNW,292,8.0,11.0,75,0.00,,---,0.04,VWS V12.08,2013-11-03 03:52:00,
2013-11-02 23:53:00,55.3,47.5,29.76,WNW,292,9.0,11.0,75,0.00,,---,0.04,VWS V12.08,2013-11-03 03:53:00,
2013-11-02 23:55:00,55.2,47.4,29.76,NW,315,5.0,11.0,75,0.00,,---,0.04,VWS V12.08,2013-11-03 03:55:00,
2013-11-02 23:56:00,55.2,47.4,29.76,NW,309,8.0,11.0,75,0.00,,---,0.04,VWS V12.08,2013-11-03 03:56:00,
2013-11-02 23:57:00,55.1,47.3,29.76,NW,309,5.0,11.0,75,0.00,,---,0.04,VWS V12.08,2013-11-03 03:57:00,
2013-11-02 23:59:00,55.1,47.3,29.76,WNW,297,5.0,11.0,75,0.00,,---,0.04,VWS V12.08,2013-11-03 03:59:00,